PORTS® Data Listing: 8545240 Philadelphia, PA

CO-OPS RAW PORTS DATA

************************      PRELIMINARY DATA      ************************** 

     THIS RAW DATA HAS NOT BEEN SUBJECT TO THE NATIONAL OCEAN SERVICE'S        
     QUALITY CONTROL OR QUALITY ASSURANCE PROCEDURES AND DOES NOT MEET         
     THE CRITERIA AND STANDARDS OF OFFICIAL NATIONAL OCEAN SERVICE             
     DATA.  IT IS RELEASED FOR LIMITED PUBLIC USE AS PRELIMINARY DATA TO       
     BE USED ONLY WITH APPROPRIATE CAUTION.                                    

************************      PRELIMINARY DATA      ************************** 


       CD   -   Calendar date
       T    -   Time
       TZ   -   Timezone
       PW   -   Predicted water level (feet above MLLW)
       OW   -   Observed water level (feet above MLLW)
       WS   -   Wind speed (knots)
       WD   -   Wind direction (degrees true)
       WG   -   Wind gust (knots)
       AT   -   Air temperature (degrees farenheit)
       WT   -   Water temperature (degrees farenheit)
       AP   -   Air pressure (millibars)
       SA   -   Salinty (PSU - Practical Salinity Units)
       SG   -   Specific gravity
       RH   -   Relative humidity
       AG   -   Air gap (feet)
       VI   -   Visibility (nautical miles)

       ** NOTE **
       A variable that has its data fields filled with "9"s, indicates that
       data was not collected for that sample period.
       **********


STATION NAME: Philadelphia (8545240)
****************************************************************************************************
    CD       T    TZ    PW     OW    WS   WD   WG    AT    WT    AP    SA    SG     RH    AG   VI
****************************************************************************************************
2019/12/05 06:24 EST    4.25   5.14 -999 -999 -999  37.4  42.1 1006.3 -9.9 -9.999 -99.9 -99.99 -9.99
2019/12/05 06:30 EST    4.35   5.24 -999 -999 -999  37.4  42.1 1006.5 -9.9 -9.999 -99.9 -99.99 -9.99
2019/12/05 06:36 EST    4.44   5.34 -999 -999 -999  37.4  42.1 1006.7 -9.9 -9.999 -99.9 -99.99 -9.99
2019/12/05 06:42 EST    4.54   5.43 -999 -999 -999  37.4  42.1 1006.8 -9.9 -9.999 -99.9 -99.99 -9.99
2019/12/05 06:48 EST    4.64   5.52 -999 -999 -999  37.4  42.1 1007.0 -9.9 -9.999 -99.9 -99.99 -9.99
2019/12/05 06:54 EST    4.74   5.60 -999 -999 -999  37.4  42.1 1007.1 -9.9 -9.999 -99.9 -99.99 -9.99
2019/12/05 07:00 EST    4.83   5.67 -999 -999 -999  37.4  42.1 1007.2 -9.9 -9.999 -99.9 -99.99 -9.99
2019/12/05 07:06 EST    4.92   5.76 -999 -999 -999  37.4  42.1 1007.4 -9.9 -9.999 -99.9 -99.99 -9.99
2019/12/05 07:12 EST    5.01   5.83 -999 -999 -999  37.6  42.1 1007.5 -9.9 -9.999 -99.9 -99.99 -9.99
2019/12/05 07:18 EST    5.10   5.92 -999 -999 -999  37.6  42.1 1007.7 -9.9 -9.999 -99.9 -99.99 -9.99
2019/12/05 07:24 EST    5.17   6.01 -999 -999 -999  37.8  42.1 1007.8 -9.9 -9.999 -99.9 -99.99 -9.99
2019/12/05 07:30 EST    5.24   6.08 -999 -999 -999  37.9  42.1 1008.0 -9.9 -9.999 -99.9 -99.99 -9.99
2019/12/05 07:36 EST    5.31   6.17 -999 -999 -999  37.9  42.1 1008.1 -9.9 -9.999 -99.9 -99.99 -9.99
2019/12/05 07:42 EST    5.36   6.23 -999 -999 -999  38.3  42.1 1008.2 -9.9 -9.999 -99.9 -99.99 -9.99
2019/12/05 07:48 EST    5.41   6.26 -999 -999 -999  38.3  42.1 1008.4 -9.9 -9.999 -99.9 -99.99 -9.99
2019/12/05 07:54 EST    5.45   6.32 -999 -999 -999  38.5  42.1 1008.5 -9.9 -9.999 -99.9 -99.99 -9.99
2019/12/05 08:00 EST    5.47   6.31 -999 -999 -999  38.7  42.1 1008.7 -9.9 -9.999 -99.9 -99.99 -9.99
2019/12/05 08:06 EST    5.49   6.36 -999 -999 -999  38.8  42.1 1008.8 -9.9 -9.999 -99.9 -99.99 -9.99
2019/12/05 08:12 EST    5.50   6.37 -999 -999 -999  39.0  42.1 1009.0 -9.9 -9.999 -99.9 -99.99 -9.99
2019/12/05 08:18 EST    5.49   6.38 -999 -999 -999  39.0  42.1 1009.0 -9.9 -9.999 -99.9 -99.99 -9.99
2019/12/05 08:24 EST    5.48   6.25 -999 -999 -999  39.2  42.1 1009.0 -9.9 -9.999 -99.9 -99.99 -9.99
2019/12/05 08:30 EST    5.46   6.30 -999 -999 -999  39.2  42.1 1009.1 -9.9 -9.999 -99.9 -99.99 -9.99
2019/12/05 08:36 EST    5.42   6.29 -999 -999 -999  39.2  42.1 1009.2 -9.9 -9.999 -99.9 -99.99 -9.99
2019/12/05 08:42 EST    5.38   6.22 -999 -999 -999  39.2  42.1 1009.4 -9.9 -9.999 -99.9 -99.99 -9.99
2019/12/05 08:48 EST    5.33   6.17 -999 -999 -999  39.2  42.1 1009.5 -9.9 -9.999 -99.9 -99.99 -9.99
2019/12/05 08:54 EST    5.27   6.10 -999 -999 -999  39.6  42.1 1009.6 -9.9 -9.999 -99.9 -99.99 -9.99
2019/12/05 09:00 EST    5.21   6.03 -999 -999 -999  40.1  42.1 1009.7 -9.9 -9.999 -99.9 -99.99 -9.99
2019/12/05 09:06 EST    5.13   5.93 -999 -999 -999  40.6  42.1 1009.8 -9.9 -9.999 -99.9 -99.99 -9.99
2019/12/05 09:12 EST    5.05   5.84 -999 -999 -999  41.2  42.1 1009.9 -9.9 -9.999 -99.9 -99.99 -9.99
2019/12/05 09:18 EST    4.97   5.75 -999 -999 -999  41.2  42.1 1010.0 -9.9 -9.999 -99.9 -99.99 -9.99
2019/12/05 09:24 EST    4.88   5.66 -999 -999 -999  41.5  42.1 1010.2 -9.9 -9.999 -99.9 -99.99 -9.99
2019/12/05 09:30 EST    4.78   5.55 -999 -999 -999  41.7  42.1 1010.3 -9.9 -9.999 -99.9 -99.99 -9.99
2019/12/05 09:36 EST    4.69   5.45 -999 -999 -999  42.1  42.1 1010.4 -9.9 -9.999 -99.9 -99.99 -9.99
2019/12/05 09:42 EST    4.59   5.35 -999 -999 -999  42.1  42.1 1010.5 -9.9 -9.999 -99.9 -99.99 -9.99
2019/12/05 09:48 EST    4.48   5.24 -999 -999 -999  42.4  42.1 1010.5 -9.9 -9.999 -99.9 -99.99 -9.99
2019/12/05 09:54 EST    4.38   5.15 -999 -999 -999  42.4  42.1 1010.6 -9.9 -9.999 -99.9 -99.99 -9.99
2019/12/05 10:00 EST    4.27   5.03 -999 -999 -999  42.8  42.1 1010.6 -9.9 -9.999 -99.9 -99.99 -9.99
2019/12/05 10:06 EST    4.16   4.92 -999 -999 -999  43.0  42.1 1010.7 -9.9 -9.999 -99.9 -99.99 -9.99
2019/12/05 10:12 EST    4.05   4.82 -999 -999 -999  43.3  42.1 1010.8 -9.9 -9.999 -99.9 -99.99 -9.99
2019/12/05 10:18 EST    3.94   4.72 -999 -999 -999  43.0  42.1 1010.9 -9.9 -9.999 -99.9 -99.99 -9.99
2019/12/05 10:24 EST    3.83   4.63 -999 -999 -999  42.8  42.1 1010.9 -9.9 -9.999 -99.9 -99.99 -9.99
2019/12/05 10:30 EST    3.71   4.52 -999 -999 -999  42.8  42.1 1010.9 -9.9 -9.999 -99.9 -99.99 -9.99
2019/12/05 10:36 EST    3.60   4.41 -999 -999 -999  43.0  42.1 1010.9 -9.9 -9.999 -99.9 -99.99 -9.99
2019/12/05 10:42 EST    3.49   4.29 -999 -999 -999  42.8  42.1 1010.8 -9.9 -9.999 -99.9 -99.99 -9.99
2019/12/05 10:48 EST    3.37   4.18 -999 -999 -999  43.3  42.1 1010.9 -9.9 -9.999 -99.9 -99.99 -9.99
2019/12/05 10:54 EST    3.26   4.08 -999 -999 -999  43.5  42.3 1010.7 -9.9 -9.999 -99.9 -99.99 -9.99
2019/12/05 11:00 EST    3.15   3.97 -999 -999 -999  43.5  42.3 1010.7 -9.9 -9.999 -99.9 -99.99 -9.99
2019/12/05 11:06 EST    3.04   3.87 -999 -999 -999  43.3  42.3 1010.6 -9.9 -9.999 -99.9 -99.99 -9.99
2019/12/05 11:12 EST    2.92   3.75 -999 -999 -999  43.5  42.3 1010.6 -9.9 -9.999 -99.9 -99.99 -9.99
2019/12/05 11:18 EST    2.81   3.64 -999 -999 -999  43.9  42.3 1010.6 -9.9 -9.999 -99.9 -99.99 -9.99
2019/12/05 11:24 EST    2.71   3.54 -999 -999 -999  43.5  42.3 1010.7 -9.9 -9.999 -99.9 -99.99 -9.99
2019/12/05 11:30 EST    2.60   3.43 -999 -999 -999  43.0  42.3 1010.7 -9.9 -9.999 -99.9 -99.99 -9.99
2019/12/05 11:36 EST    2.49   3.31 -999 -999 -999  43.0  42.3 1010.8 -9.9 -9.999 -99.9 -99.99 -9.99
2019/12/05 11:42 EST    2.39   3.21 -999 -999 -999  43.0  42.3 1010.7 -9.9 -9.999 -99.9 -99.99 -9.99
2019/12/05 11:48 EST    2.29   3.10 -999 -999 -999  43.2  42.3 1010.7 -9.9 -9.999 -99.9 -99.99 -9.99
2019/12/05 11:54 EST    2.19   3.01 -999 -999 -999  43.5  42.3 1010.7 -9.9 -9.999 -99.9 -99.99 -9.99
2019/12/05 12:00 EST    2.09   2.91 -999 -999 -999  44.6  42.3 1010.7 -9.9 -9.999 -99.9 -99.99 -9.99
2019/12/05 12:06 EST    1.99   2.81 -999 -999 -999  44.2  42.3 1010.7 -9.9 -9.999 -99.9 -99.99 -9.99
2019/12/05 12:12 EST    1.90   2.71 -999 -999 -999  44.1  42.3 1010.6 -9.9 -9.999 -99.9 -99.99 -9.99
2019/12/05 12:18 EST    1.81   2.60 -999 -999 -999  43.9  42.3 1010.6 -9.9 -9.999 -99.9 -99.99 -9.99
2019/12/05 12:24 EST    1.72   2.48 -999 -999 -999  43.9  42.3 1010.6 -9.9 -9.999 -99.9 -99.99 -9.99
2019/12/05 12:30 EST    1.63   2.39 -999 -999 -999  43.9  42.3 1010.6 -9.9 -9.999 -99.9 -99.99 -9.99
2019/12/05 12:36 EST    1.54   2.28 -999 -999 -999  43.7  42.3 1010.7 -9.9 -9.999 -99.9 -99.99 -9.99
2019/12/05 12:42 EST    1.46   2.19 -999 -999 -999  43.5  42.3 1010.7 -9.9 -9.999 -99.9 -99.99 -9.99
2019/12/05 12:48 EST    1.38   2.08 -999 -999 -999  44.1  42.3 1010.9 -9.9 -9.999 -99.9 -99.99 -9.99
2019/12/05 12:54 EST    1.29   1.98 -999 -999 -999  43.5  42.3 1010.9 -9.9 -9.999 -99.9 -99.99 -9.99
2019/12/05 13:00 EST    1.21   1.86 -999 -999 -999  43.7  42.3 1010.9 -9.9 -9.999 -99.9 -99.99 -9.99
2019/12/05 13:06 EST    1.13   1.76 -999 -999 -999  43.7  42.3 1011.0 -9.9 -9.999 -99.9 -99.99 -9.99
2019/12/05 13:12 EST    1.06   1.67 -999 -999 -999  43.5  42.3 1011.0 -9.9 -9.999 -99.9 -99.99 -9.99
2019/12/05 13:18 EST    0.98   1.57 -999 -999 -999  43.9  42.3 1011.1 -9.9 -9.999 -99.9 -99.99 -9.99
2019/12/05 13:24 EST    0.90   1.47 -999 -999 -999  43.7  42.3 1011.1 -9.9 -9.999 -99.9 -99.99 -9.99
2019/12/05 13:30 EST    0.83   1.38 -999 -999 -999  43.9  42.3 1011.1 -9.9 -9.999 -99.9 -99.99 -9.99
2019/12/05 13:36 EST    0.76   1.29 -999 -999 -999  44.1  42.3 1011.2 -9.9 -9.999 -99.9 -99.99 -9.99
2019/12/05 13:42 EST    0.69   1.21 -999 -999 -999  43.9  42.3 1011.2 -9.9 -9.999 -99.9 -99.99 -9.99
2019/12/05 13:48 EST    0.62   1.11 -999 -999 -999  44.1  42.3 1011.5 -9.9 -9.999 -99.9 -99.99 -9.99
2019/12/05 13:54 EST    0.56   1.02 -999 -999 -999  43.9  42.3 1011.5 -9.9 -9.999 -99.9 -99.99 -9.99
2019/12/05 14:00 EST    0.50   0.93 -999 -999 -999  44.1  42.3 1011.6 -9.9 -9.999 -99.9 -99.99 -9.99
2019/12/05 14:06 EST    0.45   0.85 -999 -999 -999  44.1  42.3 1011.7 -9.9 -9.999 -99.9 -99.99 -9.99
2019/12/05 14:12 EST    0.40   0.78 -999 -999 -999  43.9  42.3 1011.8 -9.9 -9.999 -99.9 -99.99 -9.99
2019/12/05 14:18 EST    0.37   0.72 -999 -999 -999  43.9  42.3 1011.9 -9.9 -9.999 -99.9 -99.99 -9.99
2019/12/05 14:24 EST    0.34   0.63 -999 -999 -999  43.9  42.3 1012.0 -9.9 -9.999 -99.9 -99.99 -9.99
2019/12/05 14:30 EST    0.31   0.58 -999 -999 -999  43.7  42.3 1012.0 -9.9 -9.999 -99.9 -99.99 -9.99
2019/12/05 14:36 EST    0.30   0.51 -999 -999 -999  43.7  42.3 1012.1 -9.9 -9.999 -99.9 -99.99 -9.99
2019/12/05 14:42 EST    0.30   0.47 -999 -999 -999  43.7  42.3 1012.1 -9.9 -9.999 -99.9 -99.99 -9.99
2019/12/05 14:48 EST    0.31   0.41 -999 -999 -999  43.5  42.3 1012.3 -9.9 -9.999 -99.9 -99.99 -9.99
2019/12/05 14:54 EST    0.33   0.38 -999 -999 -999  43.5  42.3 1012.4 -9.9 -9.999 -99.9 -99.99 -9.99
2019/12/05 15:00 EST    0.37   0.35 -999 -999 -999  43.5  42.3 1012.5 -9.9 -9.999 -99.9 -99.99 -9.99
2019/12/05 15:06 EST    0.41   0.32 -999 -999 -999  43.3  42.3 1012.7 -9.9 -9.999 -99.9 -99.99 -9.99
2019/12/05 15:12 EST    0.47   0.31 -999 -999 -999  43.3  42.3 1012.8 -9.9 -9.999 -99.9 -99.99 -9.99
2019/12/05 15:18 EST    0.54   0.31 -999 -999 -999  43.3  42.3 1012.9 -9.9 -9.999 -99.9 -99.99 -9.99
2019/12/05 15:24 EST    0.63   0.33 -999 -999 -999  43.3  42.3 1013.1 -9.9 -9.999 -99.9 -99.99 -9.99
2019/12/05 15:30 EST    0.72   0.36 -999 -999 -999  43.3  42.1 1013.1 -9.9 -9.999 -99.9 -99.99 -9.99
2019/12/05 15:36 EST    0.83   0.42 -999 -999 -999  43.3  42.1 1013.2 -9.9 -9.999 -99.9 -99.99 -9.99
2019/12/05 15:42 EST    0.94   0.50 -999 -999 -999  43.3  42.3 1013.3 -9.9 -9.999 -99.9 -99.99 -9.99
2019/12/05 15:48 EST    1.07   0.59 -999 -999 -999  43.3  42.3 1013.5 -9.9 -9.999 -99.9 -99.99 -9.99
2019/12/05 15:54 EST    1.21   0.68 -999 -999 -999  43.3  42.3 1013.7 -9.9 -9.999 -99.9 -99.99 -9.99
2019/12/05 16:00 EST    1.35   0.77 -999 -999 -999  43.2  42.3 1013.9 -9.9 -9.999 -99.9 -99.99 -9.99
2019/12/05 16:06 EST    1.49   0.88 -999 -999 -999  43.3  42.3 1014.1 -9.9 -9.999 -99.9 -99.99 -9.99
2019/12/05 16:12 EST    1.65   0.97 -999 -999 -999  43.2  42.3 1014.2 -9.9 -9.999 -99.9 -99.99 -9.99
2019/12/05 16:18 EST    1.80   1.12 -999 -999 -999  43.2  42.3 1014.3 -9.9 -9.999 -99.9 -99.99 -9.99
2019/12/05 16:24 EST    1.96   1.25 -999 -999 -999  43.2  42.3 1014.4 -9.9 -9.999 -99.9 -99.99 -9.99
2019/12/05 16:30 EST    2.11   1.40 -999 -999 -999  43.0  42.3 1014.5 -9.9 -9.999 -99.9 -99.99 -9.99
2019/12/05 16:36 EST    2.27   1.54 -999 -999 -999  43.0  42.3 1014.6 -9.9 -9.999 -99.9 -99.99 -9.99
2019/12/05 16:42 EST    2.42   1.69 -999 -999 -999  43.0  42.1 1014.7 -9.9 -9.999 -99.9 -99.99 -9.99
2019/12/05 16:48 EST    2.57   1.84 -999 -999 -999  43.0  42.3 1014.8 -9.9 -9.999 -99.9 -99.99 -9.99
2019/12/05 16:54 EST    2.72   2.00 -999 -999 -999  43.0  42.1 1014.8 -9.9 -9.999 -99.9 -99.99 -9.99
2019/12/05 17:00 EST    2.86   2.14 -999 -999 -999  43.0  42.3 1015.1 -9.9 -9.999 -99.9 -99.99 -9.99
2019/12/05 17:06 EST    2.99   2.27 -999 -999 -999  43.0  42.3 1015.2 -9.9 -9.999 -99.9 -99.99 -9.99
2019/12/05 17:12 EST    3.12   2.41 -999 -999 -999  43.0  42.3 1015.3 -9.9 -9.999 -99.9 -99.99 -9.99
2019/12/05 17:18 EST    3.25   2.54 -999 -999 -999  43.0  42.3 1015.4 -9.9 -9.999 -99.9 -99.99 -9.99
2019/12/05 17:24 EST    3.37   2.68 -999 -999 -999  43.0  42.3 1015.5 -9.9 -9.999 -99.9 -99.99 -9.99
2019/12/05 17:30 EST    3.48   2.83 -999 -999 -999  43.0  42.3 1015.7 -9.9 -9.999 -99.9 -99.99 -9.99
2019/12/05 17:36 EST    3.59   2.96 -999 -999 -999  43.0  42.3 1015.8 -9.9 -9.999 -99.9 -99.99 -9.99
2019/12/05 17:42 EST    3.69   3.08 -999 -999 -999  42.8  42.3 1015.9 -9.9 -9.999 -99.9 -99.99 -9.99
2019/12/05 17:48 EST    3.79   3.19 -999 -999 -999  42.8  42.3 1015.9 -9.9 -9.999 -99.9 -99.99 -9.99
2019/12/05 17:54 EST    3.89   3.31 -999 -999 -999  42.8  42.3 1016.0 -9.9 -9.999 -99.9 -99.99 -9.99
2019/12/05 18:00 EST    3.98   3.45 -999 -999 -999  42.8  42.3 1016.1 -9.9 -9.999 -99.9 -99.99 -9.99
2019/12/05 18:06 EST    4.07   3.57 -999 -999 -999  42.6  42.3 1016.2 -9.9 -9.999 -99.9 -99.99 -9.99
2019/12/05 18:12 EST    4.16   3.69 -999 -999 -999  42.6  42.3 1016.2 -9.9 -9.999 -99.9 -99.99 -9.99
2019/12/05 18:18 EST    4.25   3.81 -999 -999 -999  42.8  42.3 1016.4 -9.9 -9.999 -99.9 -99.99 -9.99
2019/12/05 18:24 EST    4.34   3.94 -999 -999 -999  42.6  42.3 1016.4 -9.9 -9.999 -99.9 -99.99 -9.99
2019/12/05 18:30 EST    4.43   4.06 -999 -999 -999  42.6  42.3 1016.5 -9.9 -9.999 -99.9 -99.99 -9.99
2019/12/05 18:36 EST    4.52   4.16 -999 -999 -999  42.6  42.3 1016.6 -9.9 -9.999 -99.9 -99.99 -9.99
2019/12/05 18:42 EST    4.61   4.26 -999 -999 -999  42.6  42.3 1016.7 -9.9 -9.999 -99.9 -99.99 -9.99
2019/12/05 18:48 EST    4.70   4.35 -999 -999 -999  42.6  42.3 1016.8 -9.9 -9.999 -99.9 -99.99 -9.99
2019/12/05 18:54 EST    4.79   4.45 -999 -999 -999  42.6  42.1 1016.8 -9.9 -9.999 -99.9 -99.99 -9.99
2019/12/05 19:00 EST    4.88   4.57 -999 -999 -999  42.6  42.1 1016.9 -9.9 -9.999 -99.9 -99.99 -9.99
2019/12/05 19:06 EST    4.97   4.66 -999 -999 -999  42.4  42.1 1017.0 -9.9 -9.999 -99.9 -99.99 -9.99
2019/12/05 19:12 EST    5.06   4.74 -999 -999 -999  42.4  42.1 1017.2 -9.9 -9.999 -99.9 -99.99 -9.99
2019/12/05 19:18 EST    5.15   4.84 -999 -999 -999  42.4  42.1 1017.4 -9.9 -9.999 -99.9 -99.99 -9.99
2019/12/05 19:24 EST    5.23   4.90 -999 -999 -999  42.4  42.1 1017.6 -9.9 -9.999 -99.9 -99.99 -9.99
2019/12/05 19:30 EST    5.32   4.98 -999 -999 -999  42.4  42.1 1017.8 -9.9 -9.999 -99.9 -99.99 -9.99
2019/12/05 19:36 EST    5.39   5.06 -999 -999 -999  42.6  42.1 1017.8 -9.9 -9.999 -99.9 -99.99 -9.99
2019/12/05 19:42 EST    5.47   5.11 -999 -999 -999  42.4  42.1 1017.8 -9.9 -9.999 -99.9 -99.99 -9.99
2019/12/05 19:48 EST    5.54   5.16 -999 -999 -999  42.4  42.1 1017.9 -9.9 -9.999 -99.9 -99.99 -9.99
2019/12/05 19:54 EST    5.60   5.22 -999 -999 -999  42.4  42.1 1017.9 -9.9 -9.999 -99.9 -99.99 -9.99
2019/12/05 20:00 EST    5.65   5.27 -999 -999 -999  42.4  42.1 1017.8 -9.9 -9.999 -99.9 -99.99 -9.99
2019/12/05 20:06 EST    5.70   5.32 -999 -999 -999  42.3  42.1 1017.8 -9.9 -9.999 -99.9 -99.99 -9.99
2019/12/05 20:12 EST    5.74   5.32 -999 -999 -999  42.3  42.1 1017.9 -9.9 -9.999 -99.9 -99.99 -9.99
2019/12/05 20:18 EST    5.76   5.39 -999 -999 -999  42.3  42.1 1017.9 -9.9 -9.999 -99.9 -99.99 -9.99
2019/12/05 20:24 EST    5.78   5.42 -999 -999 -999  42.1  42.1 1018.0 -9.9 -9.999 -99.9 -99.99 -9.99
2019/12/05 20:30 EST    5.79   5.42 -999 -999 -999  42.1  42.1 1018.0 -9.9 -9.999 -99.9 -99.99 -9.99
2019/12/05 20:36 EST    5.79   5.43 -999 -999 -999  41.9  42.1 1018.0 -9.9 -9.999 -99.9 -99.99 -9.99
2019/12/05 20:42 EST    5.78   5.43 -999 -999 -999  41.9  42.1 1018.1 -9.9 -9.999 -99.9 -99.99 -9.99
2019/12/05 20:48 EST    5.75   5.41 -999 -999 -999  41.9  42.1 1018.3 -9.9 -9.999 -99.9 -99.99 -9.99
2019/12/05 20:54 EST    5.72   5.38 -999 -999 -999  41.9  42.1 1018.3 -9.9 -9.999 -99.9 -99.99 -9.99
2019/12/05 21:00 EST    5.68   5.35 -999 -999 -999  41.9  42.1 1018.4 -9.9 -9.999 -99.9 -99.99 -9.99
2019/12/05 21:06 EST    5.63   5.31 -999 -999 -999  41.7  42.1 1018.5 -9.9 -9.999 -99.9 -99.99 -9.99
2019/12/05 21:12 EST    5.57   5.26 -999 -999 -999  41.7  42.1 1018.7 -9.9 -9.999 -99.9 -99.99 -9.99
2019/12/05 21:18 EST    5.51   5.23 -999 -999 -999  41.9  42.1 1018.8 -9.9 -9.999 -99.9 -99.99 -9.99
2019/12/05 21:24 EST    5.43   5.19 -999 -999 -999  41.9  42.1 1018.9 -9.9 -9.999 -99.9 -99.99 -9.99
2019/12/05 21:30 EST    5.35   5.14 -999 -999 -999  41.9  42.1 1019.0 -9.9 -9.999 -99.9 -99.99 -9.99
2019/12/05 21:36 EST    5.26   5.08 -999 -999 -999  41.9  42.1 1019.0 -9.9 -9.999 -99.9 -99.99 -9.99
2019/12/05 21:42 EST    5.17   5.01 -999 -999 -999  41.7  42.1 1019.1 -9.9 -9.999 -99.9 -99.99 -9.99
2019/12/05 21:48 EST    5.08   4.95 -999 -999 -999  41.5  42.1 1019.2 -9.9 -9.999 -99.9 -99.99 -9.99
2019/12/05 21:54 EST    4.98   4.88 -999 -999 -999  41.5  42.1 1019.2 -9.9 -9.999 -99.9 -99.99 -9.99
2019/12/05 22:00 EST    4.87   4.80 -999 -999 -999  41.4  42.1 1019.2 -9.9 -9.999 -99.9 -99.99 -9.99
2019/12/05 22:06 EST    4.77   4.74 -999 -999 -999  41.4  42.1 1019.3 -9.9 -9.999 -99.9 -99.99 -9.99
2019/12/05 22:12 EST    4.66   4.67 -999 -999 -999  41.2  42.1 1019.4 -9.9 -9.999 -99.9 -99.99 -9.99
2019/12/05 22:18 EST    4.55   4.59 -999 -999 -999  41.2  42.1 1019.6 -9.9 -9.999 -99.9 -99.99 -9.99
2019/12/05 22:24 EST    4.43   4.51 -999 -999 -999  41.2  42.1 1019.6 -9.9 -9.999 -99.9 -99.99 -9.99
2019/12/05 22:30 EST    4.32   4.43 -999 -999 -999  41.2  42.1 1019.7 -9.9 -9.999 -99.9 -99.99 -9.99
2019/12/05 22:36 EST    4.20   4.35 -999 -999 -999  41.2  42.1 1019.8 -9.9 -9.999 -99.9 -99.99 -9.99
2019/12/05 22:42 EST    4.09   4.26 -999 -999 -999  41.2  42.1 1019.7 -9.9 -9.999 -99.9 -99.99 -9.99
2019/12/05 22:48 EST    3.97   4.17 -999 -999 -999  41.0  42.1 1019.7 -9.9 -9.999 -99.9 -99.99 -9.99
2019/12/05 22:54 EST    3.85   4.08 -999 -999 -999  41.0  42.1 1019.8 -9.9 -9.999 -99.9 -99.99 -9.99
2019/12/05 23:00 EST    3.74   3.98 -999 -999 -999  41.0  42.1 1019.8 -9.9 -9.999 -99.9 -99.99 -9.99
2019/12/05 23:06 EST    3.62   3.89 -999 -999 -999  40.8  42.1 1019.9 -9.9 -9.999 -99.9 -99.99 -9.99
2019/12/05 23:12 EST    3.50   3.79 -999 -999 -999  40.6  42.1 1019.9 -9.9 -9.999 -99.9 -99.99 -9.99
2019/12/05 23:18 EST    3.38   3.69 -999 -999 -999  40.5  42.1 1020.0 -9.9 -9.999 -99.9 -99.99 -9.99
2019/12/05 23:24 EST    3.27   3.59 -999 -999 -999  40.1  42.1 1020.1 -9.9 -9.999 -99.9 -99.99 -9.99
2019/12/05 23:30 EST    3.15   3.49 -999 -999 -999  39.7  42.1 1020.1 -9.9 -9.999 -99.9 -99.99 -9.99
2019/12/05 23:36 EST    3.04   3.39 -999 -999 -999  39.4  42.1 1020.2 -9.9 -9.999 -99.9 -99.99 -9.99
2019/12/05 23:42 EST    2.92   3.28 -999 -999 -999  39.7  42.1 1020.2 -9.9 -9.999 -99.9 -99.99 -9.99
2019/12/05 23:48 EST    2.81   3.18 -999 -999 -999  39.9  42.1 1020.2 -9.9 -9.999 -99.9 -99.99 -9.99
2019/12/05 23:54 EST    2.70   3.08 -999 -999 -999  39.9  42.1 1020.3 -9.9 -9.999 -99.9 -99.99 -9.99
2019/12/06 00:00 EST    2.59   2.98 -999 -999 -999  39.9  42.1 1020.3 -9.9 -9.999 -99.9 -99.99 -9.99
2019/12/06 00:06 EST    2.48   2.88 -999 -999 -999  39.9  42.1 1020.3 -9.9 -9.999 -99.9 -99.99 -9.99
2019/12/06 00:12 EST    2.37   2.78 -999 -999 -999  39.9  42.1 1020.4 -9.9 -9.999 -99.9 -99.99 -9.99
2019/12/06 00:18 EST    2.27   2.66 -999 -999 -999  39.7  42.1 1020.4 -9.9 -9.999 -99.9 -99.99 -9.99
2019/12/06 00:24 EST    2.16   2.56 -999 -999 -999  39.6  42.1 1020.4 -9.9 -9.999 -99.9 -99.99 -9.99
2019/12/06 00:30 EST    2.06   2.44 -999 -999 -999  39.4  42.1 1020.4 -9.9 -9.999 -99.9 -99.99 -9.99
2019/12/06 00:36 EST    1.96   2.35 -999 -999 -999  39.0  42.1 1020.3 -9.9 -9.999 -99.9 -99.99 -9.99
2019/12/06 00:42 EST    1.87   2.24 -999 -999 -999  38.7  42.1 1020.5 -9.9 -9.999 -99.9 -99.99 -9.99
2019/12/06 00:48 EST    1.77   2.13 -999 -999 -999  38.3  42.1 1020.6 -9.9 -9.999 -99.9 -99.99 -9.99
2019/12/06 00:54 EST    1.68   2.03 -999 -999 -999  38.3  42.1 1020.5 -9.9 -9.999 -99.9 -99.99 -9.99
2019/12/06 01:00 EST    1.58   1.94 -999 -999 -999  38.3  42.1 1020.6 -9.9 -9.999 -99.9 -99.99 -9.99
2019/12/06 01:06 EST    1.49   1.83 -999 -999 -999  38.1  42.1 1020.8 -9.9 -9.999 -99.9 -99.99 -9.99
2019/12/06 01:12 EST    1.40   1.73 -999 -999 -999  38.1  42.1 1020.7 -9.9 -9.999 -99.9 -99.99 -9.99
2019/12/06 01:18 EST    1.31   1.63 -999 -999 -999  37.8  42.1 1020.8 -9.9 -9.999 -99.9 -99.99 -9.99
2019/12/06 01:24 EST    1.22   1.53 -999 -999 -999  37.6  42.1 1020.9 -9.9 -9.999 -99.9 -99.99 -9.99
2019/12/06 01:30 EST    1.13   1.42 -999 -999 -999  37.6  42.1 1020.9 -9.9 -9.999 -99.9 -99.99 -9.99
2019/12/06 01:36 EST    1.04   1.33 -999 -999 -999  37.6  42.1 1020.9 -9.9 -9.999 -99.9 -99.99 -9.99
2019/12/06 01:42 EST    0.95   1.23 -999 -999 -999  37.4  42.1 1021.1 -9.9 -9.999 -99.9 -99.99 -9.99
2019/12/06 01:48 EST    0.87   1.13 -999 -999 -999  37.4  42.1 1021.2 -9.9 -9.999 -99.9 -99.99 -9.99
2019/12/06 01:54 EST    0.78   1.04 -999 -999 -999  37.4  42.1 1021.2 -9.9 -9.999 -99.9 -99.99 -9.99
2019/12/06 02:00 EST    0.70   0.95 -999 -999 -999  37.2  42.1 1021.3 -9.9 -9.999 -99.9 -99.99 -9.99
2019/12/06 02:06 EST    0.62   0.85 -999 -999 -999  37.2  42.1 1021.2 -9.9 -9.999 -99.9 -99.99 -9.99
2019/12/06 02:12 EST    0.54   0.76 -999 -999 -999  37.0  42.1 1021.3 -9.9 -9.999 -99.9 -99.99 -9.99
2019/12/06 02:18 EST    0.46   0.68 -999 -999 -999  37.0  42.1 1021.4 -9.9 -9.999 -99.9 -99.99 -9.99
2019/12/06 02:24 EST    0.39   0.59 -999 -999 -999  37.0  42.1 1021.4 -9.9 -9.999 -99.9 -99.99 -9.99
2019/12/06 02:30 EST    0.33   0.51 -999 -999 -999  36.9  42.1 1021.4 -9.9 -9.999 -99.9 -99.99 -9.99
2019/12/06 02:36 EST    0.27   0.43 -999 -999 -999  36.9  42.1 1021.4 -9.9 -9.999 -99.9 -99.99 -9.99
2019/12/06 02:42 EST    0.21   0.34 -999 -999 -999  36.7  42.1 1021.5 -9.9 -9.999 -99.9 -99.99 -9.99
2019/12/06 02:48 EST    0.17   0.27 -999 -999 -999  36.7  42.1 1021.4 -9.9 -9.999 -99.9 -99.99 -9.99
2019/12/06 02:54 EST    0.13   0.20 -999 -999 -999  36.7  42.1 1021.3 -9.9 -9.999 -99.9 -99.99 -9.99
2019/12/06 03:00 EST    0.10   0.13 -999 -999 -999  36.7  42.1 1021.2 -9.9 -9.999 -99.9 -99.99 -9.99
2019/12/06 03:06 EST    0.08   0.07 -999 -999 -999  36.7  42.1 1021.3 -9.9 -9.999 -99.9 -99.99 -9.99
2019/12/06 03:12 EST    0.07   0.00 -999 -999 -999  36.7  42.1 1021.3 -9.9 -9.999 -99.9 -99.99 -9.99
2019/12/06 03:18 EST    0.08  -0.05 -999 -999 -999  36.7  42.1 1021.2 -9.9 -9.999 -99.9 -99.99 -9.99
2019/12/06 03:24 EST    0.09  -0.10 -999 -999 -999  36.7  42.1 1021.1 -9.9 -9.999 -99.9 -99.99 -9.99
2019/12/06 03:30 EST    0.12  -0.14 -999 -999 -999  36.7  42.1 1021.0 -9.9 -9.999 -99.9 -99.99 -9.99
2019/12/06 03:36 EST    0.17  -0.16 -999 -999 -999  36.5  42.1 1021.0 -9.9 -9.999 -99.9 -99.99 -9.99
2019/12/06 03:42 EST    0.22  -0.16 -999 -999 -999  36.3  42.1 1021.0 -9.9 -9.999 -99.9 -99.99 -9.99
2019/12/06 03:48 EST    0.29  -0.15 -999 -999 -999  36.3  42.1 1021.0 -9.9 -9.999 -99.9 -99.99 -9.99
2019/12/06 03:54 EST    0.37  -0.11 -999 -999 -999  36.1  42.1 1021.0 -9.9 -9.999 -99.9 -99.99 -9.99
2019/12/06 04:00 EST    0.46  -0.03 -999 -999 -999  36.1  42.1 1021.0 -9.9 -9.999 -99.9 -99.99 -9.99
2019/12/06 04:06 EST    0.56   0.08 -999 -999 -999  36.1  42.1 1020.9 -9.9 -9.999 -99.9 -99.99 -9.99
2019/12/06 04:12 EST    0.67   0.24 -999 -999 -999  36.0  42.1 1020.8 -9.9 -9.999 -99.9 -99.99 -9.99
2019/12/06 04:18 EST    0.79   0.42 -999 -999 -999  36.0  42.1 1020.8 -9.9 -9.999 -99.9 -99.99 -9.99
2019/12/06 04:24 EST    0.92   0.62 -999 -999 -999  36.0  41.9 1020.7 -9.9 -9.999 -99.9 -99.99 -9.99
2019/12/06 04:30 EST    1.06   0.82 -999 -999 -999  35.8  41.9 1020.8 -9.9 -9.999 -99.9 -99.99 -9.99
2019/12/06 04:36 EST    1.20   1.03 -999 -999 -999  35.8  41.9 1020.7 -9.9 -9.999 -99.9 -99.99 -9.99
2019/12/06 04:42 EST    1.34   1.22 -999 -999 -999  35.6  41.9 1020.7 -9.9 -9.999 -99.9 -99.99 -9.99
2019/12/06 04:48 EST    1.49   1.41 -999 -999 -999  35.6  41.7 1020.8 -9.9 -9.999 -99.9 -99.99 -9.99
2019/12/06 04:54 EST    1.63   1.59 -999 -999 -999  35.6  41.9 1020.8 -9.9 -9.999 -99.9 -99.99 -9.99
2019/12/06 05:00 EST    1.78   1.78 -999 -999 -999  35.6  41.7 1021.0 -9.9 -9.999 -99.9 -99.99 -9.99
2019/12/06 05:06 EST    1.93   1.96 -999 -999 -999  35.6  41.7 1020.9 -9.9 -9.999 -99.9 -99.99 -9.99
2019/12/06 05:12 EST    2.07   2.13 -999 -999 -999  35.8  41.7 1020.9 -9.9 -9.999 -99.9 -99.99 -9.99
2019/12/06 05:18 EST    2.21   2.29 -999 -999 -999  36.0  41.7 1020.9 -9.9 -9.999 -99.9 -99.99 -9.99
2019/12/06 05:24 EST    2.35   2.44 -999 -999 -999  36.0  41.7 1020.9 -9.9 -9.999 -99.9 -99.99 -9.99
2019/12/06 05:30 EST    2.49   2.59 -999 -999 -999  36.0  41.7 1020.9 -9.9 -9.999 -99.9 -99.99 -9.99
2019/12/06 05:36 EST    2.62   2.74 -999 -999 -999  35.6  41.9 1020.9 -9.9 -9.999 -99.9 -99.99 -9.99
2019/12/06 05:42 EST    2.74   2.88 -999 -999 -999  35.8  41.7 1020.9 -9.9 -9.999 -99.9 -99.99 -9.99
2019/12/06 05:48 EST    2.86   3.02 -999 -999 -999  35.8  41.9 1020.9 -9.9 -9.999 -99.9 -99.99 -9.99
2019/12/06 05:54 EST    2.97   3.15 -999 -999 -999  35.4  41.9 1020.9 -9.9 -9.999 -99.9 -99.99 -9.99
2019/12/06 06:00 EST    3.09   3.28 -999 -999 -999  35.1  41.9 1020.9 -9.9 -9.999 -99.9 -99.99 -9.99
2019/12/06 06:06 EST    3.19   3.40 -999 -999 -999  34.9  41.7 1020.9 -9.9 -9.999 -99.9 -99.99 -9.99
2019/12/06 06:12 EST    3.30   3.53 -999 -999 -999  34.7  41.9 1020.9 -9.9 -9.999 -99.9 -99.99 -9.99
2019/12/06 06:18 EST    3.40   3.66 -999 -999 -999  34.5  41.7 1020.9 -9.9 -9.999 -99.9 -99.99 -9.99
2019/12/06 06:24 EST    3.50   3.79 -999 -999 -999  34.2  41.7 1020.8 -9.9 -9.999 -99.9 -99.99 -9.99
2019/12/06 06:30 EST    3.59   3.92 -999 -999 -999  34.0  41.7 1020.9 -9.9 -9.999 -99.9 -99.99 -9.99
2019/12/06 06:36 EST    3.69   4.05 -999 -999 -999  34.0  41.7 1020.8 -9.9 -9.999 -99.9 -99.99 -9.99
2019/12/06 06:42 EST    3.79   4.17 -999 -999 -999  34.0  41.7 1021.0 -9.9 -9.999 -99.9 -99.99 -9.99
2019/12/06 06:48 EST    3.88   4.29 -999 -999 -999  34.0  41.7 1021.0 -9.9 -9.999 -99.9 -99.99 -9.99
2019/12/06 06:54 EST    3.98   4.41 -999 -999 -999  34.2  41.7 1021.0 -9.9 -9.999 -99.9 -99.99 -9.99
2019/12/06 07:00 EST    4.08   4.53 -999 -999 -999  34.2  41.7 1021.0 -9.9 -9.999 -99.9 -99.99 -9.99
2019/12/06 07:06 EST    4.18   4.64 -999 -999 -999  34.2  41.7 1021.0 -9.9 -9.999 -99.9 -99.99 -9.99
2019/12/06 07:12 EST    4.28   4.75 -999 -999 -999  34.2  41.7 1021.0 -9.9 -9.999 -99.9 -99.99 -9.99
2019/12/06 07:18 EST    4.38   4.86 -999 -999 -999  34.3  41.7 1021.1 -9.9 -9.999 -99.9 -99.99 -9.99
2019/12/06 07:24 EST    4.48   4.95 -999 -999 -999  34.7  41.7 1021.1 -9.9 -9.999 -99.9 -99.99 -9.99
2019/12/06 07:30 EST    4.59   5.06 -999 -999 -999  34.9  41.7 1021.2 -9.9 -9.999 -99.9 -99.99 -9.99
2019/12/06 07:36 EST    4.69   5.14 -999 -999 -999  35.2  41.7 1021.2 -9.9 -9.999 -99.9 -99.99 -9.99
2019/12/06 07:42 EST    4.79   5.25 -999 -999 -999  35.6  41.7 1021.0 -9.9 -9.999 -99.9 -99.99 -9.99
2019/12/06 07:48 EST    4.89   5.32 -999 -999 -999  35.8  41.7 1020.9 -9.9 -9.999 -99.9 -99.99 -9.99
2019/12/06 07:54 EST    4.99   5.40 -999 -999 -999  36.0  41.7 1021.0 -9.9 -9.999 -99.9 -99.99 -9.99
2019/12/06 08:00 EST    5.08   5.49 -999 -999 -999  36.0  41.7 1020.9 -9.9 -9.999 -99.9 -99.99 -9.99
2019/12/06 08:06 EST    5.17   5.58 -999 -999 -999  36.0  41.7 1020.8 -9.9 -9.999 -99.9 -99.99 -9.99
2019/12/06 08:12 EST    5.25   5.68 -999 -999 -999  36.0  41.7 1020.8 -9.9 -9.999 -99.9 -99.99 -9.99
2019/12/06 08:18 EST    5.33   5.75 -999 -999 -999  36.1  41.7 1020.8 -9.9 -9.999 -99.9 -99.99 -9.99
2019/12/06 08:24 EST    5.40   5.82 -999 -999 -999  36.1  41.7 1020.8 -9.9 -9.999 -99.9 -99.99 -9.99
2019/12/06 08:30 EST    5.46   5.90 -999 -999 -999  36.3  41.7 1020.9 -9.9 -9.999 -99.9 -99.99 -9.99
2019/12/06 08:36 EST    5.52   5.97 -999 -999 -999  36.5  41.7 1020.9 -9.9 -9.999 -99.9 -99.99 -9.99
2019/12/06 08:42 EST    5.56   6.03 -999 -999 -999  36.9  41.7 1020.8 -9.9 -9.999 -99.9 -99.99 -9.99
2019/12/06 08:48 EST    5.60   6.08 -999 -999 -999  37.0  41.7 1020.9 -9.9 -9.999 -99.9 -99.99 -9.99
2019/12/06 08:54 EST    5.62   6.09 -999 -999 -999  37.4  41.7 1020.9 -9.9 -9.999 -99.9 -99.99 -9.99
2019/12/06 09:00 EST    5.63   6.14 -999 -999 -999  37.2  41.7 1020.8 -9.9 -9.999 -99.9 -99.99 -9.99
2019/12/06 09:06 EST    5.64   6.12 -999 -999 -999  37.6  41.7 1020.8 -9.9 -9.999 -99.9 -99.99 -9.99
2019/12/06 09:12 EST    5.63   6.13 -999 -999 -999  37.8  41.7 1020.8 -9.9 -9.999 -99.9 -99.99 -9.99
2019/12/06 09:18 EST    5.61   6.13 -999 -999 -999  38.1  41.7 1020.8 -9.9 -9.999 -99.9 -99.99 -9.99
2019/12/06 09:24 EST    5.59   6.08 -999 -999 -999  38.5  41.7 1020.7 -9.9 -9.999 -99.9 -99.99 -9.99
2019/12/06 09:30 EST    5.55   6.07 -999 -999 -999  39.0  41.7 1020.6 -9.9 -9.999 -99.9 -99.99 -9.99
2019/12/06 09:36 EST    5.51   6.04 -999 -999 -999  39.6  41.7 1020.5 -9.9 -9.999 -99.9 -99.99 -9.99
2019/12/06 09:42 EST    5.45   5.99 -999 -999 -999  40.1  41.7 1020.3 -9.9 -9.999 -99.9 -99.99 -9.99
2019/12/06 09:48 EST    5.39   5.96 -999 -999 -999  40.8  41.7 1020.3 -9.9 -9.999 -99.9 -99.99 -9.99
2019/12/06 09:54 EST    5.32   5.87 -999 -999 -999  41.7  41.7 1020.2 -9.9 -9.999 -99.9 -99.99 -9.99
2019/12/06 10:00 EST    5.25   5.79 -999 -999 -999  42.1  41.7 1020.1 -9.9 -9.999 -99.9 -99.99 -9.99
2019/12/06 10:06 EST    5.17   5.74 -999 -999 -999  42.8  41.7 1020.0 -9.9 -9.999 -99.9 -99.99 -9.99
2019/12/06 10:12 EST    5.08   5.65 -999 -999 -999  43.5  41.7 1019.9 -9.9 -9.999 -99.9 -99.99 -9.99
2019/12/06 10:18 EST    4.99   5.56 -999 -999 -999  44.2  41.7 1019.7 -9.9 -9.999 -99.9 -99.99 -9.99
2019/12/06 10:24 EST    4.89   5.47 -999 -999 -999  44.4  41.7 1019.7 -9.9 -9.999 -99.9 -99.99 -9.99
2019/12/06 10:30 EST    4.79   5.40 -999 -999 -999  45.1  41.7 1019.7 -9.9 -9.999 -99.9 -99.99 -9.99
2019/12/06 10:36 EST    4.69   5.30 -999 -999 -999  45.3  41.7 1019.6 -9.9 -9.999 -99.9 -99.99 -9.99
2019/12/06 10:42 EST    4.59   5.20 -999 -999 -999  46.2  41.7 1019.4 -9.9 -9.999 -99.9 -99.99 -9.99
2019/12/06 10:48 EST    4.48   5.10 -999 -999 -999  46.0  41.7 1019.3 -9.9 -9.999 -99.9 -99.99 -9.99
2019/12/06 10:54 EST    4.37   5.00 -999 -999 -999  46.4  41.7 1019.2 -9.9 -9.999 -99.9 -99.99 -9.99
2019/12/06 11:00 EST    4.26   4.89 -999 -999 -999  46.6  41.7 1019.0 -9.9 -9.999 -99.9 -99.99 -9.99
2019/12/06 11:06 EST    4.15   4.80 -999 -999 -999  47.3  41.7 1018.9 -9.9 -9.999 -99.9 -99.99 -9.99
2019/12/06 11:12 EST    4.04   4.70 -999 -999 -999  46.6  41.7 1018.7 -9.9 -9.999 -99.9 -99.99 -9.99
2019/12/06 11:18 EST    3.93   4.58 -999 -999 -999  46.9  41.7 1018.6 -9.9 -9.999 -99.9 -99.99 -9.99
2019/12/06 11:24 EST    3.81   4.48 -999 -999 -999  47.7  41.7 1018.4 -9.9 -9.999 -99.9 -99.99 -9.99
2019/12/06 11:30 EST    3.70   4.38 -999 -999 -999  47.5  41.7 1018.2 -9.9 -9.999 -99.9 -99.99 -9.99
2019/12/06 11:36 EST    3.58   4.28 -999 -999 -999  47.7  41.7 1018.1 -9.9 -9.999 -99.9 -99.99 -9.99
2019/12/06 11:42 EST    3.47   4.19 -999 -999 -999  48.2  41.7 1017.9 -9.9 -9.999 -99.9 -99.99 -9.99
2019/12/06 11:48 EST    3.35   4.10 -999 -999 -999  48.7  41.7 1017.8 -9.9 -9.999 -99.9 -99.99 -9.99
2019/12/06 11:54 EST    3.24   4.00 -999 -999 -999  48.9  41.7 1017.6 -9.9 -9.999 -99.9 -99.99 -9.99
2019/12/06 12:00 EST    3.13   3.92 -999 -999 -999  48.9  41.7 1017.5 -9.9 -9.999 -99.9 -99.99 -9.99
2019/12/06 12:06 EST    3.02   3.82 -999 -999 -999  48.9  41.7 1017.4 -9.9 -9.999 -99.9 -99.99 -9.99
2019/12/06 12:12 EST    2.90   3.72 -999 -999 -999  49.3  41.7 1017.3 -9.9 -9.999 -99.9 -99.99 -9.99
2019/12/06 12:18 EST    2.79   3.63 -999 -999 -999  49.1  41.9 1017.0 -9.9 -9.999 -99.9 -99.99 -9.99
2019/12/06 12:24 EST    2.68   3.53 -999 -999 -999  49.3  41.9 1017.0 -9.9 -9.999 -99.9 -99.99 -9.99
2019/12/06 12:30 EST    2.58   3.43 -999 -999 -999  49.1  41.9 1016.9 -9.9 -9.999 -99.9 -99.99 -9.99
2019/12/06 12:36 EST    2.47   3.33 -999 -999 -999  49.1  41.9 1016.8 -9.9 -9.999 -99.9 -99.99 -9.99
2019/12/06 12:42 EST    2.37   3.23 -999 -999 -999  49.6  41.9 1016.6 -9.9 -9.999 -99.9 -99.99 -9.99
2019/12/06 12:48 EST    2.27   3.13 -999 -999 -999  49.5  41.9 1016.6 -9.9 -9.999 -99.9 -99.99 -9.99
2019/12/06 12:54 EST    2.17   3.04 -999 -999 -999  48.9  41.7 1016.6 -9.9 -9.999 -99.9 -99.99 -9.99
2019/12/06 13:00 EST    2.07   2.94 -999 -999 -999  48.4  41.7 1016.6 -9.9 -9.999 -99.9 -99.99 -9.99
2019/12/06 13:06 EST    1.97   2.84 -999 -999 -999  48.7  41.7 1016.5 -9.9 -9.999 -99.9 -99.99 -9.99
2019/12/06 13:12 EST    1.88   2.74 -999 -999 -999  48.4  41.7 1016.3 -9.9 -9.999 -99.9 -99.99 -9.99
2019/12/06 13:18 EST    1.78   2.63 -999 -999 -999  48.2  41.9 1016.3 -9.9 -9.999 -99.9 -99.99 -9.99
2019/12/06 13:24 EST    1.69   2.54 -999 -999 -999  48.4  41.9 1016.1 -9.9 -9.999 -99.9 -99.99 -9.99
2019/12/06 13:30 EST    1.60   2.45 -999 -999 -999  48.6  41.9 1015.8 -9.9 -9.999 -99.9 -99.99 -9.99
2019/12/06 13:36 EST    1.51   2.36 -999 -999 -999  48.6  41.9 1015.9 -9.9 -9.999 -99.9 -99.99 -9.99
2019/12/06 13:42 EST    1.42   2.26 -999 -999 -999  48.4  41.9 1015.6 -9.9 -9.999 -99.9 -99.99 -9.99
2019/12/06 13:48 EST    1.33   2.16 -999 -999 -999  48.4  41.9 1015.7 -9.9 -9.999 -99.9 -99.99 -9.99
2019/12/06 13:54 EST    1.25   2.08 -999 -999 -999  48.6  41.9 1015.3 -9.9 -9.999 -99.9 -99.99 -9.99
2019/12/06 14:00 EST    1.16   1.99 -999 -999 -999  48.7  41.9 1015.2 -9.9 -9.999 -99.9 -99.99 -9.99
2019/12/06 14:06 EST    1.08   1.89 -999 -999 -999  48.9  41.9 1015.0 -9.9 -9.999 -99.9 -99.99 -9.99
2019/12/06 14:12 EST    1.00   1.80 -999 -999 -999  49.1  41.9 1014.9 -9.9 -9.999 -99.9 -99.99 -9.99
2019/12/06 14:18 EST    0.91   1.71 -999 -999 -999  49.1  41.9 1015.0 -9.9 -9.999 -99.9 -99.99 -9.99
2019/12/06 14:24 EST    0.83   1.63 -999 -999 -999  49.1  41.9 1015.0 -9.9 -9.999 -99.9 -99.99 -9.99
2019/12/06 14:30 EST    0.76   1.55 -999 -999 -999  49.3  41.9 1015.0 -9.9 -9.999 -99.9 -99.99 -9.99
2019/12/06 14:36 EST    0.68   1.45 -999 -999 -999  49.3  41.9 1015.0 -9.9 -9.999 -99.9 -99.99 -9.99
2019/12/06 14:42 EST    0.61   1.38 -999 -999 -999  49.5  41.9 1014.9 -9.9 -9.999 -99.9 -99.99 -9.99
2019/12/06 14:48 EST    0.54   1.29 -999 -999 -999  49.5  41.9 1014.9 -9.9 -9.999 -99.9 -99.99 -9.99
2019/12/06 14:54 EST    0.48   1.22 -999 -999 -999  49.6  41.9 1015.2 -9.9 -9.999 -99.9 -99.99 -9.99
2019/12/06 15:00 EST    0.42   1.14 -999 -999 -999  49.8  41.9 1015.1 -9.9 -9.999 -99.9 -99.99 -9.99
2019/12/06 15:06 EST    0.37   1.08 -999 -999 -999  50.0  41.9 1015.0 -9.9 -9.999 -99.9 -99.99 -9.99
2019/12/06 15:12 EST    0.33   1.02 -999 -999 -999  50.2  41.9 1015.0 -9.9 -9.999 -99.9 -99.99 -9.99
2019/12/06 15:18 EST    0.29   0.96 -999 -999 -999  50.4  41.9 1015.3 -9.9 -9.999 -99.9 -99.99 -9.99
2019/12/06 15:24 EST    0.27   0.91 -999 -999 -999  50.4  41.9 1015.1 -9.9 -9.999 -99.9 -99.99 -9.99
2019/12/06 15:30 EST    0.25   0.87 -999 -999 -999  50.4  41.9 1014.9 -9.9 -9.999 -99.9 -99.99 -9.99
2019/12/06 15:36 EST    0.25   0.83 -999 -999 -999  50.4  41.9 1014.8 -9.9 -9.999 -99.9 -99.99 -9.99
2019/12/06 15:42 EST    0.26   0.80 -999 -999 -999  50.4  41.9 1014.9 -9.9 -9.999 -99.9 -99.99 -9.99
2019/12/06 15:48 EST    0.28   0.78 -999 -999 -999  50.4  41.9 1014.9 -9.9 -9.999 -99.9 -99.99 -9.99
2019/12/06 15:54 EST    0.31   0.79 -999 -999 -999  50.4  41.9 1014.8 -9.9 -9.999 -99.9 -99.99 -9.99
2019/12/06 16:00 EST    0.35   0.82 -999 -999 -999  50.5  41.9 1015.0 -9.9 -9.999 -99.9 -99.99 -9.99
2019/12/06 16:06 EST    0.41   0.89 -999 -999 -999  50.5  41.9 1015.1 -9.9 -9.999 -99.9 -99.99 -9.99
2019/12/06 16:12 EST    0.48   0.99 -999 -999 -999  50.7  41.9 1015.1 -9.9 -9.999 -99.9 -99.99 -9.99
2019/12/06 16:18 EST    0.56   1.13 -999 -999 -999  50.7  41.9 1015.2 -9.9 -9.999 -99.9 -99.99 -9.99
2019/12/06 16:24 EST    0.66   1.28 -999 -999 -999  50.7  41.9 1015.3 -9.9 -9.999 -99.9 -99.99 -9.99
2019/12/06 16:30 EST    0.76   1.46 -999 -999 -999  50.2  41.9 1015.3 -9.9 -9.999 -99.9 -99.99 -9.99
2019/12/06 16:36 EST    0.88   1.63 -999 -999 -999  49.5  41.9 1015.4 -9.9 -9.999 -99.9 -99.99 -9.99
2019/12/06 16:42 EST    1.00   1.80 -999 -999 -999  48.7  41.9 1015.4 -9.9 -9.999 -99.9 -99.99 -9.99
2019/12/06 16:48 EST    1.14   1.97 -999 -999 -999  48.4  41.9 1015.2 -9.9 -9.999 -99.9 -99.99 -9.99
2019/12/06 16:54 EST    1.27   2.14 -999 -999 -999  48.0  41.9 1015.3 -9.9 -9.999 -99.9 -99.99 -9.99
2019/12/06 17:00 EST    1.42   2.29 -999 -999 -999  47.8  41.7 1015.3 -9.9 -9.999 -99.9 -99.99 -9.99
2019/12/06 17:06 EST    1.57   2.44 -999 -999 -999  47.5  41.7 1015.2 -9.9 -9.999 -99.9 -99.99 -9.99
2019/12/06 17:12 EST    1.72   2.60 -999 -999 -999  47.5  41.7 1015.0 -9.9 -9.999 -99.9 -99.99 -9.99
2019/12/06 17:18 EST    1.87   2.75 -999 -999 -999  47.5  41.7 1015.0 -9.9 -9.999 -99.9 -99.99 -9.99
2019/12/06 17:24 EST    2.02   2.89 -999 -999 -999  47.8  41.7 1015.0 -9.9 -9.999 -99.9 -99.99 -9.99
2019/12/06 17:30 EST    2.17   3.04 -999 -999 -999  47.8  41.7 1015.2 -9.9 -9.999 -99.9 -99.99 -9.99
2019/12/06 17:36 EST    2.32   3.16 -999 -999 -999  48.0  41.7 1015.2 -9.9 -9.999 -99.9 -99.99 -9.99
2019/12/06 17:42 EST    2.46   3.29 -999 -999 -999  48.2  41.7 1015.3 -9.9 -9.999 -99.9 -99.99 -9.99
2019/12/06 17:48 EST    2.60   3.41 -999 -999 -999  48.2  41.7 1015.4 -9.9 -9.999 -99.9 -99.99 -9.99
2019/12/06 17:54 EST    2.74   3.53 -999 -999 -999  48.2  41.7 1015.4 -9.9 -9.999 -99.9 -99.99 -9.99
2019/12/06 18:00 EST    2.87   3.65 -999 -999 -999  48.4  41.7 1015.6 -9.9 -9.999 -99.9 -99.99 -9.99
2019/12/06 18:06 EST    3.00   3.77 -999 -999 -999  48.4  41.7 1015.8 -9.9 -9.999 -99.9 -99.99 -9.99
2019/12/06 18:12 EST    3.12   3.88 -999 -999 -999  48.6  41.7 1015.8 -9.9 -9.999 -99.9 -99.99 -9.99
2019/12/06 18:18 EST    3.24   4.00 -999 -999 -999  48.6  41.7 1015.9 -9.9 -9.999 -99.9 -99.99 -9.99
2019/12/06 18:24 EST    3.35   4.10 -999 -999 -999  48.7  41.7 1016.0 -9.9 -9.999 -99.9 -99.99 -9.99
2019/12/06 18:30 EST    3.46   4.22 -999 -999 -999  48.9  41.9 1016.0 -9.9 -9.999 -99.9 -99.99 -9.99
2019/12/06 18:36 EST    3.56   4.33 -999 -999 -999  48.9  41.7 1016.1 -9.9 -9.999 -99.9 -99.99 -9.99
2019/12/06 18:42 EST    3.66   4.43 -999 -999 -999  48.7  41.7 1016.1 -9.9 -9.999 -99.9 -99.99 -9.99
2019/12/06 18:48 EST    3.76   4.55 -999 -999 -999  48.7  41.7 1016.1 -9.9 -9.999 -99.9 -99.99 -9.99
2019/12/06 18:54 EST    3.85   4.65 -999 -999 -999  48.7  41.7 1016.2 -9.9 -9.999 -99.9 -99.99 -9.99
2019/12/06 19:00 EST    3.95   4.75 -999 -999 -999  48.7  41.7 1016.3 -9.9 -9.999 -99.9 -99.99 -9.99
2019/12/06 19:06 EST    4.04   4.85 -999 -999 -999  48.6  41.9 1016.5 -9.9 -9.999 -99.9 -99.99 -9.99
2019/12/06 19:12 EST    4.13   4.97 -999 -999 -999  48.6  41.9 1016.8 -9.9 -9.999 -99.9 -99.99 -9.99
2019/12/06 19:18 EST    4.23   5.04 -999 -999 -999  48.7  41.9 1017.1 -9.9 -9.999 -99.9 -99.99 -9.99
2019/12/06 19:24 EST    4.32   5.13 -999 -999 -999  48.7  41.9 1017.2 -9.9 -9.999 -99.9 -99.99 -9.99
2019/12/06 19:30 EST    4.41   5.21 -999 -999 -999  48.7  41.9 1017.2 -9.9 -9.999 -99.9 -99.99 -9.99
2019/12/06 19:36 EST    4.51   5.29 -999 -999 -999  48.7  41.7 1017.3 -9.9 -9.999 -99.9 -99.99 -9.99
2019/12/06 19:42 EST    4.60   5.32 -999 -999 -999  48.9  41.7 1017.4 -9.9 -9.999 -99.9 -99.99 -9.99
2019/12/06 19:48 EST    4.70   5.43 -999 -999 -999  48.9  41.7 1017.5 -9.9 -9.999 -99.9 -99.99 -9.99
2019/12/06 19:54 EST    4.80   5.50 -999 -999 -999  48.7  41.7 1017.6 -9.9 -9.999 -99.9 -99.99 -9.99
2019/12/06 20:00 EST    4.89   5.56 -999 -999 -999  48.7  41.7 1017.7 -9.9 -9.999 -99.9 -99.99 -9.99
2019/12/06 20:06 EST    4.99   5.64 -999 -999 -999  48.9  41.7 1017.7 -9.9 -9.999 -99.9 -99.99 -9.99
2019/12/06 20:12 EST    5.08   5.71 -999 -999 -999  49.1  41.7 1017.8 -9.9 -9.999 -99.9 -99.99 -9.99
2019/12/06 20:18 EST    5.17   5.77 -999 -999 -999  49.3  41.7 1017.9 -9.9 -9.999 -99.9 -99.99 -9.99
2019/12/06 20:24 EST    5.26   5.84 -999 -999 -999  49.3  41.7 1018.0 -9.9 -9.999 -99.9 -99.99 -9.99
2019/12/06 20:30 EST    5.34   5.92 -999 -999 -999  49.3  41.7 1018.1 -9.9 -9.999 -99.9 -99.99 -9.99
2019/12/06 20:36 EST    5.41   5.97 -999 -999 -999  49.1  41.9 1018.1 -9.9 -9.999 -99.9 -99.99 -9.99
2019/12/06 20:42 EST    5.48   6.04 -999 -999 -999  49.1  41.9 1018.2 -9.9 -9.999 -99.9 -99.99 -9.99
2019/12/06 20:48 EST    5.55   6.08 -999 -999 -999  48.9  41.9 1018.2 -9.9 -9.999 -99.9 -99.99 -9.99
2019/12/06 20:54 EST    5.60   6.11 -999 -999 -999  48.9  41.7 1018.3 -9.9 -9.999 -99.9 -99.99 -9.99
2019/12/06 21:00 EST    5.65   6.11 -999 -999 -999  48.7  41.7 1018.4 -9.9 -9.999 -99.9 -99.99 -9.99
2019/12/06 21:06 EST    5.69   6.11 -999 -999 -999  48.7  41.7 1018.5 -9.9 -9.999 -99.9 -99.99 -9.99
2019/12/06 21:12 EST    5.71   6.11 -999 -999 -999  48.7  41.7 1018.6 -9.9 -9.999 -99.9 -99.99 -9.99
2019/12/06 21:18 EST    5.73   6.09 -999 -999 -999  48.6  41.7 1018.6 -9.9 -9.999 -99.9 -99.99 -9.99
2019/12/06 21:24 EST    5.74   6.08 -999 -999 -999  48.6  41.7 1018.7 -9.9 -9.999 -99.9 -99.99 -9.99
2019/12/06 21:30 EST    5.73   6.04 -999 -999 -999  48.4  41.7 1018.9 -9.9 -9.999 -99.9 -99.99 -9.99
2019/12/06 21:36 EST    5.72   6.02 -999 -999 -999  48.4  41.7 1019.0 -9.9 -9.999 -99.9 -99.99 -9.99
2019/12/06 21:42 EST    5.69   5.97 -999 -999 -999  48.2  41.7 1019.2 -9.9 -9.999 -99.9 -99.99 -9.99
2019/12/06 21:48 EST    5.66   5.91 -999 -999 -999  47.8  41.7 1019.3 -9.9 -9.999 -99.9 -99.99 -9.99
2019/12/06 21:54 EST    5.62   5.84 -999 -999 -999  47.5  41.9 1019.6 -9.9 -9.999 -99.9 -99.99 -9.99
2019/12/06 22:00 EST    5.56   5.76 -999 -999 -999  46.8  41.7 1019.8 -9.9 -9.999 -99.9 -99.99 -9.99
2019/12/06 22:06 EST    5.50   5.68 -999 -999 -999  46.2  41.7 1019.9 -9.9 -9.999 -99.9 -99.99 -9.99
2019/12/06 22:12 EST    5.44   5.59 -999 -999 -999  45.7  41.7 1020.1 -9.9 -9.999 -99.9 -99.99 -9.99
2019/12/06 22:18 EST    5.36   5.51 -999 -999 -999  45.5  41.7 1020.2 -9.9 -9.999 -99.9 -99.99 -9.99
2019/12/06 22:24 EST    5.28   5.42 -999 -999 -999  45.3  41.7 1020.3 -9.9 -9.999 -99.9 -99.99 -9.99
2019/12/06 22:30 EST    5.19   5.33 -999 -999 -999  45.0  41.7 1020.4 -9.9 -9.999 -99.9 -99.99 -9.99
2019/12/06 22:36 EST    5.10   5.23 -999 -999 -999  44.8  41.7 1020.4 -9.9 -9.999 -99.9 -99.99 -9.99
2019/12/06 22:42 EST    5.00   5.13 -999 -999 -999  44.6  41.7 1020.6 -9.9 -9.999 -99.9 -99.99 -9.99
2019/12/06 22:48 EST    4.90   5.01 -999 -999 -999  44.2  41.9 1020.6 -9.9 -9.999 -99.9 -99.99 -9.99
2019/12/06 22:54 EST    4.79   4.91 -999 -999 -999  44.1  41.7 1020.7 -9.9 -9.999 -99.9 -99.99 -9.99
2019/12/06 23:00 EST    4.68   4.79 -999 -999 -999  43.7  41.9 1020.8 -9.9 -9.999 -99.9 -99.99 -9.99
2019/12/06 23:06 EST    4.57   4.69 -999 -999 -999  43.5  41.7 1020.9 -9.9 -9.999 -99.9 -99.99 -9.99
2019/12/06 23:12 EST    4.46   4.57 -999 -999 -999  43.5  41.7 1020.9 -9.9 -9.999 -99.9 -99.99 -9.99
2019/12/06 23:18 EST    4.34   4.46 -999 -999 -999  43.3  41.7 1021.0 -9.9 -9.999 -99.9 -99.99 -9.99
2019/12/06 23:24 EST    4.23   4.36 -999 -999 -999  43.2  41.7 1021.1 -9.9 -9.999 -99.9 -99.99 -9.99
2019/12/06 23:30 EST    4.11   4.24 -999 -999 -999  43.0  41.7 1021.1 -9.9 -9.999 -99.9 -99.99 -9.99
2019/12/06 23:36 EST    3.99   4.14 -999 -999 -999  42.6  41.7 1021.2 -9.9 -9.999 -99.9 -99.99 -9.99
2019/12/06 23:42 EST    3.87   4.03 -999 -999 -999  42.4  41.7 1021.2 -9.9 -9.999 -99.9 -99.99 -9.99
2019/12/06 23:48 EST    3.76   3.92 -999 -999 -999  42.3  41.7 1021.3 -9.9 -9.999 -99.9 -99.99 -9.99
2019/12/06 23:54 EST    3.64   3.81 -999 -999 -999  42.3  41.7 1021.4 -9.9 -9.999 -99.9 -99.99 -9.99
2019/12/07 00:00 EST    3.52   3.70 -999 -999 -999  42.1  41.7 1021.5 -9.9 -9.999 -99.9 -99.99 -9.99
2019/12/07 00:06 EST    3.40   3.59 -999 -999 -999  41.9  41.9 1021.5 -9.9 -9.999 -99.9 -99.99 -9.99
2019/12/07 00:12 EST    3.28   3.48 -999 -999 -999  41.5  41.7 1021.6 -9.9 -9.999 -99.9 -99.99 -9.99
2019/12/07 00:18 EST    3.16   3.37 -999 -999 -999  41.4  41.7 1021.7 -9.9 -9.999 -99.9 -99.99 -9.99
2019/12/07 00:24 EST    3.05   3.26 -999 -999 -999  41.4  41.7 1021.7 -9.9 -9.999 -99.9 -99.99 -9.99
2019/12/07 00:30 EST    2.93   3.16 -999 -999 -999  41.2  41.7 1021.8 -9.9 -9.999 -99.9 -99.99 -9.99
2019/12/07 00:36 EST    2.81   3.05 -999 -999 -999  40.8  41.7 1021.8 -9.9 -9.999 -99.9 -99.99 -9.99
2019/12/07 00:42 EST    2.70   2.95 -999 -999 -999  40.8  41.7 1021.9 -9.9 -9.999 -99.9 -99.99 -9.99
2019/12/07 00:48 EST    2.59   2.84 -999 -999 -999  40.6  41.7 1022.0 -9.9 -9.999 -99.9 -99.99 -9.99
2019/12/07 00:54 EST    2.48   2.73 -999 -999 -999  40.6  41.7 1022.0 -9.9 -9.999 -99.9 -99.99 -9.99
2019/12/07 01:00 EST    2.37   2.63 -999 -999 -999  40.5  41.9 1022.1 -9.9 -9.999 -99.9 -99.99 -9.99
2019/12/07 01:06 EST    2.26   2.51 -999 -999 -999  40.3  41.9 1022.2 -9.9 -9.999 -99.9 -99.99 -9.99
2019/12/07 01:12 EST    2.15   2.40 -999 -999 -999  40.3  41.9 1022.4 -9.9 -9.999 -99.9 -99.99 -9.99
2019/12/07 01:18 EST    2.05   2.29 -999 -999 -999  40.1  41.9 1022.5 -9.9 -9.999 -99.9 -99.99 -9.99
2019/12/07 01:24 EST    1.95   2.19 -999 -999 -999  39.9  41.9 1022.6 -9.9 -9.999 -99.9 -99.99 -9.99
2019/12/07 01:30 EST    1.85   2.08 -999 -999 -999  39.7  41.7 1022.6 -9.9 -9.999 -99.9 -99.99 -9.99
2019/12/07 01:36 EST    1.75   1.97 -999 -999 -999  39.6  41.7 1022.7 -9.9 -9.999 -99.9 -99.99 -9.99
2019/12/07 01:42 EST    1.65   1.86 -999 -999 -999  39.4  41.7 1022.8 -9.9 -9.999 -99.9 -99.99 -9.99
2019/12/07 01:48 EST    1.56   1.75 -999 -999 -999  39.2  41.7 1022.9 -9.9 -9.999 -99.9 -99.99 -9.99
2019/12/07 01:54 EST    1.46   1.64 -999 -999 -999  39.0  41.9 1023.0 -9.9 -9.999 -99.9 -99.99 -9.99
2019/12/07 02:00 EST    1.37   1.53 -999 -999 -999  38.8  41.9 1023.2 -9.9 -9.999 -99.9 -99.99 -9.99
2019/12/07 02:06 EST    1.28   1.43 -999 -999 -999  38.7  41.9 1023.3 -9.9 -9.999 -99.9 -99.99 -9.99
2019/12/07 02:12 EST    1.19   1.33 -999 -999 -999  38.7  41.9 1023.4 -9.9 -9.999 -99.9 -99.99 -9.99
2019/12/07 02:18 EST    1.10   1.23 -999 -999 -999  38.5  41.9 1023.5 -9.9 -9.999 -99.9 -99.99 -9.99
2019/12/07 02:24 EST    1.01   1.12 -999 -999 -999  38.3  41.7 1023.5 -9.9 -9.999 -99.9 -99.99 -9.99
2019/12/07 02:30 EST    0.92   1.02 -999 -999 -999  38.3  41.9 1023.5 -9.9 -9.999 -99.9 -99.99 -9.99
2019/12/07 02:36 EST    0.84   0.92 -999 -999 -999  38.1  41.7 1023.6 -9.9 -9.999 -99.9 -99.99 -9.99
2019/12/07 02:42 EST    0.75   0.81 -999 -999 -999  37.9  41.7 1023.6 -9.9 -9.999 -99.9 -99.99 -9.99
2019/12/07 02:48 EST    0.67   0.72 -999 -999 -999  37.8  41.7 1023.7 -9.9 -9.999 -99.9 -99.99 -9.99
2019/12/07 02:54 EST    0.58   0.62 -999 -999 -999  37.8  41.9 1023.8 -9.9 -9.999 -99.9 -99.99 -9.99
2019/12/07 03:00 EST    0.50   0.53 -999 -999 -999  37.8  41.7 1023.8 -9.9 -9.999 -99.9 -99.99 -9.99
2019/12/07 03:06 EST    0.43   0.44 -999 -999 -999  37.6  41.7 1023.9 -9.9 -9.999 -99.9 -99.99 -9.99
2019/12/07 03:12 EST    0.36   0.35 -999 -999 -999  37.6  41.7 1024.0 -9.9 -9.999 -99.9 -99.99 -9.99
2019/12/07 03:18 EST    0.29   0.26 -999 -999 -999  37.4  41.7 1024.0 -9.9 -9.999 -99.9 -99.99 -9.99
2019/12/07 03:24 EST    0.23   0.16 -999 -999 -999  37.2  41.7 1024.1 -9.9 -9.999 -99.9 -99.99 -9.99
2019/12/07 03:30 EST    0.17   0.08 -999 -999 -999  37.2  41.7 1024.2 -9.9 -9.999 -99.9 -99.99 -9.99
2019/12/07 03:36 EST    0.12   0.02 -999 -999 -999  36.9  41.7 1024.3 -9.9 -9.999 -99.9 -99.99 -9.99
2019/12/07 03:42 EST    0.08  -0.09 -999 -999 -999  36.9  41.7 1024.4 -9.9 -9.999 -99.9 -99.99 -9.99
2019/12/07 03:48 EST    0.05  -0.16 -999 -999 -999  36.7  41.7 1024.5 -9.9 -9.999 -99.9 -99.99 -9.99
2019/12/07 03:54 EST    0.03  -0.26 -999 -999 -999  36.5  41.7 1024.6 -9.9 -9.999 -99.9 -99.99 -9.99
2019/12/07 04:00 EST    0.02  -0.32 -999 -999 -999  36.3  41.7 1024.7 -9.9 -9.999 -99.9 -99.99 -9.99
2019/12/07 04:06 EST    0.03  -0.39 -999 -999 -999  36.3  41.7 1024.7 -9.9 -9.999 -99.9 -99.99 -9.99
2019/12/07 04:12 EST    0.04  -0.45 -999 -999 -999  36.1  41.7 1024.8 -9.9 -9.999 -99.9 -99.99 -9.99
2019/12/07 04:18 EST    0.07  -0.52 -999 -999 -999  36.1  41.7 1024.9 -9.9 -9.999 -99.9 -99.99 -9.99
2019/12/07 04:24 EST    0.11  -0.56 -999 -999 -999  36.0  41.7 1025.0 -9.9 -9.999 -99.9 -99.99 -9.99
2019/12/07 04:30 EST    0.16  -0.59 -999 -999 -999  36.1  41.7 1025.0 -9.9 -9.999 -99.9 -99.99 -9.99
2019/12/07 04:36 EST    0.23  -0.61 -999 -999 -999  36.1  41.7 1025.1 -9.9 -9.999 -99.9 -99.99 -9.99
2019/12/07 04:42 EST    0.31  -0.61 -999 -999 -999  36.0  41.7 1025.2 -9.9 -9.999 -99.9 -99.99 -9.99
2019/12/07 04:48 EST    0.40  -0.59 -999 -999 -999  36.0  41.5 1025.3 -9.9 -9.999 -99.9 -99.99 -9.99
2019/12/07 04:54 EST    0.50  -0.54 -999 -999 -999  36.0  41.7 1025.4 -9.9 -9.999 -99.9 -99.99 -9.99
2019/12/07 05:00 EST    0.61  -0.46 -999 -999 -999  36.0  41.5 1025.6 -9.9 -9.999 -99.9 -99.99 -9.99
2019/12/07 05:06 EST    0.73  -0.34 -999 -999 -999  36.0  41.7 1025.6 -9.9 -9.999 -99.9 -99.99 -9.99
2019/12/07 05:12 EST    0.86  -0.18 -999 -999 -999  35.8  41.5 1025.7 -9.9 -9.999 -99.9 -99.99 -9.99
2019/12/07 05:18 EST    1.00   0.00 -999 -999 -999  35.6  41.5 1025.8 -9.9 -9.999 -99.9 -99.99 -9.99
2019/12/07 05:24 EST    1.15   0.20 -999 -999 -999  35.6  41.5 1025.8 -9.9 -9.999 -99.9 -99.99 -9.99
2019/12/07 05:30 EST    1.29   0.39 -999 -999 -999  35.6  41.5 1025.9 -9.9 -9.999 -99.9 -99.99 -9.99
2019/12/07 05:36 EST    1.45   0.59 -999 -999 -999  35.6  41.4 1026.1 -9.9 -9.999 -99.9 -99.99 -9.99
2019/12/07 05:42 EST    1.60   0.79 -999 -999 -999  35.6  41.4 1026.3 -9.9 -9.999 -99.9 -99.99 -9.99
2019/12/07 05:48 EST    1.75   0.97 -999 -999 -999  35.4  41.4 1026.4 -9.9 -9.999 -99.9 -99.99 -9.99
2019/12/07 05:54 EST    1.91   1.16 -999 -999 -999  35.4  41.4 1026.6 -9.9 -9.999 -99.9 -99.99 -9.99
2019/12/07 06:00 EST    2.06   1.34 -999 -999 -999  35.2  41.4 1026.7 -9.9 -9.999 -99.9 -99.99 -9.99
2019/12/07 06:06 EST    2.21   1.51 -999 -999 -999  35.4  41.4 1026.8 -9.9 -9.999 -99.9 -99.99 -9.99
2019/12/07 06:12 EST    2.35   1.68 -999 -999 -999  35.4  41.4 1026.8 -9.9 -9.999 -99.9 -99.99 -9.99
2019/12/07 06:18 EST    2.49   1.84 -999 -999 -999  35.4  41.4 1026.8 -9.9 -9.999 -99.9 -99.99 -9.99
2019/12/07 06:24 EST    2.63   2.00 -999 -999 -999  35.4  41.4 1026.8 -9.9 -9.999 -99.9 -99.99 -9.99
2019/12/07 06:30 EST    2.76   2.15 -999 -999 -999  35.6  41.4 1026.9 -9.9 -9.999 -99.9 -99.99 -9.99
2019/12/07 06:36 EST    2.89   2.29 -999 -999 -999  35.4  41.4 1027.0 -9.9 -9.999 -99.9 -99.99 -9.99
2019/12/07 06:42 EST    3.01   2.43 -999 -999 -999  35.4  41.4 1027.2 -9.9 -9.999 -99.9 -99.99 -9.99
2019/12/07 06:48 EST    3.13   2.57 -999 -999 -999  35.4  41.4 1027.2 -9.9 -9.999 -99.9 -99.99 -9.99
2019/12/07 06:54 EST    3.25   2.70 -999 -999 -999  35.4  41.4 1027.3 -9.9 -9.999 -99.9 -99.99 -9.99
2019/12/07 07:00 EST    3.36   2.82 -999 -999 -999  35.4  41.4 1027.5 -9.9 -9.999 -99.9 -99.99 -9.99
2019/12/07 07:06 EST    3.47   2.94 -999 -999 -999  35.4  41.4 1027.6 -9.9 -9.999 -99.9 -99.99 -9.99
2019/12/07 07:12 EST    3.57   3.06 -999 -999 -999  35.4  41.4 1027.6 -9.9 -9.999 -99.9 -99.99 -9.99
2019/12/07 07:18 EST    3.67   3.18 -999 -999 -999  35.4  41.4 1027.7 -9.9 -9.999 -99.9 -99.99 -9.99
2019/12/07 07:24 EST    3.77   3.30 -999 -999 -999  35.4  41.4 1027.8 -9.9 -9.999 -99.9 -99.99 -9.99
2019/12/07 07:30 EST    3.88   3.43 -999 -999 -999  35.8  41.5 1027.8 -9.9 -9.999 -99.9 -99.99 -9.99
2019/12/07 07:36 EST    3.98   3.56 -999 -999 -999  35.8  41.5 1027.7 -9.9 -9.999 -99.9 -99.99 -9.99
2019/12/07 07:42 EST    4.08   3.68 -999 -999 -999  36.0  41.5 1027.8 -9.9 -9.999 -99.9 -99.99 -9.99
2019/12/07 07:48 EST    4.18   3.80 -999 -999 -999  36.1  41.5 1027.8 -9.9 -9.999 -99.9 -99.99 -9.99
2019/12/07 07:54 EST    4.28   3.92 -999 -999 -999  36.1  41.5 1027.9 -9.9 -9.999 -99.9 -99.99 -9.99
2019/12/07 08:00 EST    4.39   4.03 -999 -999 -999  36.1  41.5 1027.9 -9.9 -9.999 -99.9 -99.99 -9.99
2019/12/07 08:06 EST    4.49   4.15 -999 -999 -999  36.3  41.5 1028.0 -9.9 -9.999 -99.9 -99.99 -9.99
2019/12/07 08:12 EST    4.60   4.26 -999 -999 -999  36.3  41.5 1028.1 -9.9 -9.999 -99.9 -99.99 -9.99
2019/12/07 08:18 EST    4.70   4.36 -999 -999 -999  36.7  41.4 1028.1 -9.9 -9.999 -99.9 -99.99 -9.99
2019/12/07 08:24 EST    4.81   4.46 -999 -999 -999  36.9  41.4 1028.1 -9.9 -9.999 -99.9 -99.99 -9.99
2019/12/07 08:30 EST    4.91   4.56 -999 -999 -999  37.2  41.5 1028.2 -9.9 -9.999 -99.9 -99.99 -9.99
2019/12/07 08:36 EST    5.01   4.65 -999 -999 -999  37.6  41.4 1028.3 -9.9 -9.999 -99.9 -99.99 -9.99
2019/12/07 08:42 EST    5.11   4.74 -999 -999 -999  37.4  41.4 1028.3 -9.9 -9.999 -99.9 -99.99 -9.99
2019/12/07 08:48 EST    5.21   4.84 -999 -999 -999  37.4  41.4 1028.4 -9.9 -9.999 -99.9 -99.99 -9.99
2019/12/07 08:54 EST    5.30   4.93 -999 -999 -999  37.4  41.4 1028.5 -9.9 -9.999 -99.9 -99.99 -9.99
2019/12/07 09:00 EST    5.39   5.03 -999 -999 -999  37.0  41.4 1028.4 -9.9 -9.999 -99.9 -99.99 -9.99
2019/12/07 09:06 EST    5.47   5.13 -999 -999 -999  37.4  41.4 1028.5 -9.9 -9.999 -99.9 -99.99 -9.99
2019/12/07 09:12 EST    5.54   5.21 -999 -999 -999  37.2  41.4 1028.6 -9.9 -9.999 -99.9 -99.99 -9.99
2019/12/07 09:18 EST    5.61   5.29 -999 -999 -999  37.2  41.4 1028.7 -9.9 -9.999 -99.9 -99.99 -9.99
2019/12/07 09:24 EST    5.67   5.37 -999 -999 -999  37.2  41.4 1028.7 -9.9 -9.999 -99.9 -99.99 -9.99
2019/12/07 09:30 EST    5.72   5.46 -999 -999 -999  37.2  41.4 1028.7 -9.9 -9.999 -99.9 -99.99 -9.99
2019/12/07 09:36 EST    5.76   5.53 -999 -999 -999  37.6  41.4 1028.7 -9.9 -9.999 -99.9 -99.99 -9.99
2019/12/07 09:42 EST    5.78   5.58 -999 -999 -999  37.8  41.4 1028.8 -9.9 -9.999 -99.9 -99.99 -9.99
2019/12/07 09:48 EST    5.80   5.63 -999 -999 -999  37.9  41.4 1028.9 -9.9 -9.999 -99.9 -99.99 -9.99
2019/12/07 09:54 EST    5.81   5.67 -999 -999 -999  38.1  41.4 1028.9 -9.9 -9.999 -99.9 -99.99 -9.99
2019/12/07 10:00 EST    5.81   5.71 -999 -999 -999  37.9  41.4 1028.9 -9.9 -9.999 -99.9 -99.99 -9.99
2019/12/07 10:06 EST    5.79   5.74 -999 -999 -999  38.5  41.2 1029.0 -9.9 -9.999 -99.9 -99.99 -9.99
2019/12/07 10:12 EST    5.77   5.76 -999 -999 -999  38.8  41.4 1029.0 -9.9 -9.999 -99.9 -99.99 -9.99
2019/12/07 10:18 EST    5.74   5.76 -999 -999 -999  38.8  41.2 1029.0 -9.9 -9.999 -99.9 -99.99 -9.99
2019/12/07 10:24 EST    5.69   5.76 -999 -999 -999  38.7  41.2 1029.0 -9.9 -9.999 -99.9 -99.99 -9.99
2019/12/07 10:30 EST    5.64   5.75 -999 -999 -999  38.8  41.4 1029.0 -9.9 -9.999 -99.9 -99.99 -9.99
2019/12/07 10:36 EST    5.58   5.73 -999 -999 -999  38.8  41.4 1029.0 -9.9 -9.999 -99.9 -99.99 -9.99
2019/12/07 10:42 EST    5.52   5.71 -999 -999 -999  39.0  41.4 1028.9 -9.9 -9.999 -99.9 -99.99 -9.99
2019/12/07 10:48 EST    5.45   5.68 -999 -999 -999  38.8  41.4 1028.9 -9.9 -9.999 -99.9 -99.99 -9.99
2019/12/07 10:54 EST    5.37   5.63 -999 -999 -999  39.2  41.4 1028.9 -9.9 -9.999 -99.9 -99.99 -9.99
2019/12/07 11:00 EST    5.28   5.55 -999 -999 -999  39.4  41.4 1029.0 -9.9 -9.999 -99.9 -99.99 -9.99
2019/12/07 11:06 EST    5.19   5.50 -999 -999 -999  39.4  41.4 1029.0 -9.9 -9.999 -99.9 -99.99 -9.99
2019/12/07 11:12 EST    5.10   5.43 -999 -999 -999  39.2  41.2 1028.8 -9.9 -9.999 -99.9 -99.99 -9.99
2019/12/07 11:18 EST    5.00   5.35 -999 -999 -999  39.0  41.2 1028.7 -9.9 -9.999 -99.9 -99.99 -9.99
2019/12/07 11:24 EST    4.90   5.27 -999 -999 -999  39.6  41.2 1028.8 -9.9 -9.999 -99.9 -99.99 -9.99
2019/12/07 11:30 EST    4.80   5.16 -999 -999 -999  39.4  41.2 1028.7 -9.9 -9.999 -99.9 -99.99 -9.99
2019/12/07 11:36 EST    4.69   5.07 -999 -999 -999  38.8  41.2 1028.7 -9.9 -9.999 -99.9 -99.99 -9.99
2019/12/07 11:42 EST    4.58   4.96 -999 -999 -999  39.2  41.2 1028.6 -9.9 -9.999 -99.9 -99.99 -9.99
2019/12/07 11:48 EST    4.47   4.87 -999 -999 -999  39.2  41.4 1028.6 -9.9 -9.999 -99.9 -99.99 -9.99
2019/12/07 11:54 EST    4.36   4.78 -999 -999 -999  38.8  41.4 1028.7 -9.9 -9.999 -99.9 -99.99 -9.99
2019/12/07 12:00 EST    4.25   4.66 -999 -999 -999  39.0  41.4 1028.7 -9.9 -9.999 -99.9 -99.99 -9.99
2019/12/07 12:06 EST    4.14   4.55 -999 -999 -999  39.0  41.4 1028.6 -9.9 -9.999 -99.9 -99.99 -9.99
2019/12/07 12:12 EST    4.02   4.45 -999 -999 -999  39.6  41.4 1028.6 -9.9 -9.999 -99.9 -99.99 -9.99
2019/12/07 12:18 EST    3.91   4.34 -999 -999 -999  39.9  41.2 1028.6 -9.9 -9.999 -99.9 -99.99 -9.99
2019/12/07 12:24 EST    3.79   4.24 -999 -999 -999  39.4  41.4 1028.5 -9.9 -9.999 -99.9 -99.99 -9.99
2019/12/07 12:30 EST    3.68   4.12 -999 -999 -999  39.0  41.2 1028.4 -9.9 -9.999 -99.9 -99.99 -9.99
2019/12/07 12:36 EST    3.56   4.03 -999 -999 -999  39.0  41.4 1028.4 -9.9 -9.999 -99.9 -99.99 -9.99
2019/12/07 12:42 EST    3.45   3.91 -999 -999 -999  40.3  41.2 1028.5 -9.9 -9.999 -99.9 -99.99 -9.99
2019/12/07 12:48 EST    3.33   3.81 -999 -999 -999  39.7  41.4 1028.5 -9.9 -9.999 -99.9 -99.99 -9.99
2019/12/07 12:54 EST    3.22   3.70 -999 -999 -999  39.9  41.2 1028.6 -9.9 -9.999 -99.9 -99.99 -9.99
2019/12/07 13:00 EST    3.11   3.61 -999 -999 -999  39.9  41.4 1028.7 -9.9 -9.999 -99.9 -99.99 -9.99
2019/12/07 13:06 EST    2.99   3.49 -999 -999 -999  39.9  41.4 1028.5 -9.9 -9.999 -99.9 -99.99 -9.99
2019/12/07 13:12 EST    2.88   3.40 -999 -999 -999  41.0  41.4 1028.4 -9.9 -9.999 -99.9 -99.99 -9.99
2019/12/07 13:18 EST    2.77   3.29 -999 -999 -999  40.6  41.4 1028.4 -9.9 -9.999 -99.9 -99.99 -9.99
2019/12/07 13:24 EST    2.66   3.19 -999 -999 -999  40.1  41.4 1028.3 -9.9 -9.999 -99.9 -99.99 -9.99
2019/12/07 13:30 EST    2.56   3.10 -999 -999 -999  39.9  41.4 1028.4 -9.9 -9.999 -99.9 -99.99 -9.99
2019/12/07 13:36 EST    2.45   3.00 -999 -999 -999  39.9  41.4 1028.5 -9.9 -9.999 -99.9 -99.99 -9.99
2019/12/07 13:42 EST    2.35   2.89 -999 -999 -999  40.3  41.4 1028.5 -9.9 -9.999 -99.9 -99.99 -9.99
2019/12/07 13:48 EST    2.24   2.79 -999 -999 -999  39.9  41.4 1028.5 -9.9 -9.999 -99.9 -99.99 -9.99
2019/12/07 13:54 EST    2.14   2.69 -999 -999 -999  40.1  41.4 1028.5 -9.9 -9.999 -99.9 -99.99 -9.99
2019/12/07 14:00 EST    2.04   2.59 -999 -999 -999  40.5  41.4 1028.5 -9.9 -9.999 -99.9 -99.99 -9.99
2019/12/07 14:06 EST    1.94   2.49 -999 -999 -999  39.7  41.4 1028.5 -9.9 -9.999 -99.9 -99.99 -9.99
2019/12/07 14:12 EST    1.84   2.39 -999 -999 -999  40.1  41.4 1028.5 -9.9 -9.999 -99.9 -99.99 -9.99
2019/12/07 14:18 EST    1.75   2.29 -999 -999 -999  40.6  41.4 1028.5 -9.9 -9.999 -99.9 -99.99 -9.99
2019/12/07 14:24 EST    1.65   2.19 -999 -999 -999  40.1  41.4 1028.5 -9.9 -9.999 -99.9 -99.99 -9.99
2019/12/07 14:30 EST    1.56   2.08 -999 -999 -999  40.3  41.4 1028.5 -9.9 -9.999 -99.9 -99.99 -9.99
2019/12/07 14:36 EST    1.46   1.98 -999 -999 -999  40.5  41.4 1028.5 -9.9 -9.999 -99.9 -99.99 -9.99
2019/12/07 14:42 EST    1.37   1.89 -999 -999 -999  41.0  41.4 1028.6 -9.9 -9.999 -99.9 -99.99 -9.99
2019/12/07 14:48 EST    1.27   1.79 -999 -999 -999  40.5  41.4 1028.6 -9.9 -9.999 -99.9 -99.99 -9.99
2019/12/07 14:54 EST    1.18   1.68 -999 -999 -999  40.3  41.4 1028.6 -9.9 -9.999 -99.9 -99.99 -9.99
2019/12/07 15:00 EST    1.09   1.59 -999 -999 -999  40.8  41.4 1028.6 -9.9 -9.999 -99.9 -99.99 -9.99
2019/12/07 15:06 EST    1.00   1.48 -999 -999 -999  41.0  41.4 1028.6 -9.9 -9.999 -99.9 -99.99 -9.99
2019/12/07 15:12 EST    0.91   1.39 -999 -999 -999  40.8  41.4 1028.7 -9.9 -9.999 -99.9 -99.99 -9.99
2019/12/07 15:18 EST    0.82   1.29 -999 -999 -999  40.6  41.4 1028.8 -9.9 -9.999 -99.9 -99.99 -9.99
2019/12/07 15:24 EST    0.74   1.19 -999 -999 -999  40.8  41.4 1028.8 -9.9 -9.999 -99.9 -99.99 -9.99
2019/12/07 15:30 EST    0.65   1.10 -999 -999 -999  41.0  41.5 1028.8 -9.9 -9.999 -99.9 -99.99 -9.99
2019/12/07 15:36 EST    0.57   1.01 -999 -999 -999  41.0  41.5 1028.8 -9.9 -9.999 -99.9 -99.99 -9.99
2019/12/07 15:42 EST    0.50   0.92 -999 -999 -999  40.6  41.5 1028.9 -9.9 -9.999 -99.9 -99.99 -9.99
2019/12/07 15:48 EST    0.43   0.82 -999 -999 -999  40.6  41.5 1029.0 -9.9 -9.999 -99.9 -99.99 -9.99
2019/12/07 15:54 EST    0.37   0.74 -999 -999 -999  40.3  41.5 1029.0 -9.9 -9.999 -99.9 -99.99 -9.99
2019/12/07 16:00 EST    0.31   0.66 -999 -999 -999  40.3  41.5 1029.1 -9.9 -9.999 -99.9 -99.99 -9.99
2019/12/07 16:06 EST    0.27   0.58 -999 -999 -999  40.1  41.5 1029.1 -9.9 -9.999 -99.9 -99.99 -9.99
2019/12/07 16:12 EST    0.23   0.51 -999 -999 -999  40.1  41.5 1029.1 -9.9 -9.999 -99.9 -99.99 -9.99
2019/12/07 16:18 EST    0.20   0.44 -999 -999 -999  40.1  41.5 1029.2 -9.9 -9.999 -99.9 -99.99 -9.99
2019/12/07 16:24 EST    0.18   0.37 -999 -999 -999  39.9  41.5 1029.3 -9.9 -9.999 -99.9 -99.99 -9.99
2019/12/07 16:30 EST    0.18   0.32 -999 -999 -999  39.7  41.5 1029.4 -9.9 -9.999 -99.9 -99.99 -9.99
2019/12/07 16:36 EST    0.18   0.27 -999 -999 -999  39.6  41.5 1029.4 -9.9 -9.999 -99.9 -99.99 -9.99
2019/12/07 16:42 EST    0.20   0.24 -999 -999 -999  39.7  41.5 1029.5 -9.9 -9.999 -99.9 -99.99 -9.99
2019/12/07 16:48 EST    0.23   0.22 -999 -999 -999  39.4  41.5 1029.6 -9.9 -9.999 -99.9 -99.99 -9.99
2019/12/07 16:54 EST    0.28   0.22 -999 -999 -999  39.4  41.5 1029.7 -9.9 -9.999 -99.9 -99.99 -9.99
2019/12/07 17:00 EST    0.34   0.24 -999 -999 -999  39.0  41.5 1029.7 -9.9 -9.999 -99.9 -99.99 -9.99
2019/12/07 17:06 EST    0.41   0.29 -999 -999 -999  39.2  41.5 1029.8 -9.9 -9.999 -99.9 -99.99 -9.99
2019/12/07 17:12 EST    0.49   0.36 -999 -999 -999  39.0  41.5 1029.8 -9.9 -9.999 -99.9 -99.99 -9.99
2019/12/07 17:18 EST    0.59   0.48 -999 -999 -999  39.0  41.5 1029.9 -9.9 -9.999 -99.9 -99.99 -9.99
2019/12/07 17:24 EST    0.69   0.61 -999 -999 -999  39.0  41.5 1030.0 -9.9 -9.999 -99.9 -99.99 -9.99
2019/12/07 17:30 EST    0.81   0.77 -999 -999 -999  39.2  41.5 1030.1 -9.9 -9.999 -99.9 -99.99 -9.99
2019/12/07 17:36 EST    0.93   0.95 -999 -999 -999  39.2  41.5 1030.1 -9.9 -9.999 -99.9 -99.99 -9.99
2019/12/07 17:42 EST    1.06   1.12 -999 -999 -999  39.0  41.5 1030.2 -9.9 -9.999 -99.9 -99.99 -9.99
2019/12/07 17:48 EST    1.20   1.30 -999 -999 -999  39.0  41.5 1030.3 -9.9 -9.999 -99.9 -99.99 -9.99
2019/12/07 17:54 EST    1.35   1.47 -999 -999 -999  39.0  41.5 1030.3 -9.9 -9.999 -99.9 -99.99 -9.99
2019/12/07 18:00 EST    1.49   1.64 -999 -999 -999  39.2  41.5 1030.4 -9.9 -9.999 -99.9 -99.99 -9.99
2019/12/07 18:06 EST    1.64   1.81 -999 -999 -999  39.0  41.4 1030.4 -9.9 -9.999 -99.9 -99.99 -9.99
2019/12/07 18:12 EST    1.80   1.97 -999 -999 -999  39.0  41.4 1030.5 -9.9 -9.999 -99.9 -99.99 -9.99
2019/12/07 18:18 EST    1.95   2.13 -999 -999 -999  38.8  41.4 1030.5 -9.9 -9.999 -99.9 -99.99 -9.99
2019/12/07 18:24 EST    2.10   2.28 -999 -999 -999  38.7  41.4 1030.5 -9.9 -9.999 -99.9 -99.99 -9.99
2019/12/07 18:30 EST    2.24   2.42 -999 -999 -999  38.8  41.4 1030.6 -9.9 -9.999 -99.9 -99.99 -9.99
2019/12/07 18:36 EST    2.39   2.57 -999 -999 -999  39.0  41.4 1030.6 -9.9 -9.999 -99.9 -99.99 -9.99
2019/12/07 18:42 EST    2.53   2.70 -999 -999 -999  39.0  41.5 1030.7 -9.9 -9.999 -99.9 -99.99 -9.99
2019/12/07 18:48 EST    2.66   2.83 -999 -999 -999  39.0  41.5 1030.8 -9.9 -9.999 -99.9 -99.99 -9.99
2019/12/07 18:54 EST    2.79   2.96 -999 -999 -999  39.0  41.5 1030.8 -9.9 -9.999 -99.9 -99.99 -9.99
2019/12/07 19:00 EST    2.92   3.08 -999 -999 -999  39.0  41.5 1030.8 -9.9 -9.999 -99.9 -99.99 -9.99
2019/12/07 19:06 EST    3.04   3.19 -999 -999 -999  39.0  41.5 1030.9 -9.9 -9.999 -99.9 -99.99 -9.99
2019/12/07 19:12 EST    3.16   3.31 -999 -999 -999  39.0  41.5 1030.9 -9.9 -9.999 -99.9 -99.99 -9.99
2019/12/07 19:18 EST    3.27   3.42 -999 -999 -999  38.8  41.4 1030.9 -9.9 -9.999 -99.9 -99.99 -9.99
2019/12/07 19:24 EST    3.38   3.54 -999 -999 -999  38.8  41.4 1031.1 -9.9 -9.999 -99.9 -99.99 -9.99
2019/12/07 19:30 EST    3.48   3.66 -999 -999 -999  38.8  41.4 1031.2 -9.9 -9.999 -99.9 -99.99 -9.99
2019/12/07 19:36 EST    3.59   3.77 -999 -999 -999  38.8  41.4 1031.3 -9.9 -9.999 -99.9 -99.99 -9.99
2019/12/07 19:42 EST    3.69   3.89 -999 -999 -999  38.7  41.4 1031.4 -9.9 -9.999 -99.9 -99.99 -9.99
2019/12/07 19:48 EST    3.79   4.00 -999 -999 -999  38.7  41.4 1031.4 -9.9 -9.999 -99.9 -99.99 -9.99
2019/12/07 19:54 EST    3.88   4.10 -999 -999 -999  38.5  41.4 1031.4 -9.9 -9.999 -99.9 -99.99 -9.99
2019/12/07 20:00 EST    3.98   4.21 -999 -999 -999  38.5  41.4 1031.5 -9.9 -9.999 -99.9 -99.99 -9.99
2019/12/07 20:06 EST    4.08   4.32 -999 -999 -999  38.5  41.2 1031.5 -9.9 -9.999 -99.9 -99.99 -9.99
2019/12/07 20:12 EST    4.18   4.42 -999 -999 -999  38.3  41.2 1031.5 -9.9 -9.999 -99.9 -99.99 -9.99
2019/12/07 20:18 EST    4.28   4.52 -999 -999 -999  38.1  41.4 1031.6 -9.9 -9.999 -99.9 -99.99 -9.99
2019/12/07 20:24 EST    4.38   4.62 -999 -999 -999  37.9  41.2 1031.6 -9.9 -9.999 -99.9 -99.99 -9.99
2019/12/07 20:30 EST    4.48   4.71 -999 -999 -999  37.9  41.4 1031.5 -9.9 -9.999 -99.9 -99.99 -9.99
2019/12/07 20:36 EST    4.58   4.77 -999 -999 -999  37.8  41.4 1031.6 -9.9 -9.999 -99.9 -99.99 -9.99
2019/12/07 20:42 EST    4.68   4.87 -999 -999 -999  37.6  41.4 1031.6 -9.9 -9.999 -99.9 -99.99 -9.99
2019/12/07 20:48 EST    4.78   4.95 -999 -999 -999  37.2  41.4 1031.7 -9.9 -9.999 -99.9 -99.99 -9.99
2019/12/07 20:54 EST    4.88   5.02 -999 -999 -999  36.9  41.2 1031.7 -9.9 -9.999 -99.9 -99.99 -9.99
2019/12/07 21:00 EST    4.97   5.11 -999 -999 -999  36.9  41.2 1031.7 -9.9 -9.999 -99.9 -99.99 -9.99
2019/12/07 21:06 EST    5.07   5.17 -999 -999 -999  36.7  41.2 1031.8 -9.9 -9.999 -99.9 -99.99 -9.99
2019/12/07 21:12 EST    5.16   5.25 -999 -999 -999  36.5  41.2 1031.9 -9.9 -9.999 -99.9 -99.99 -9.99
2019/12/07 21:18 EST    5.25   5.34 -999 -999 -999  36.3  41.2 1032.0 -9.9 -9.999 -99.9 -99.99 -9.99
2019/12/07 21:24 EST    5.33   5.41 -999 -999 -999  36.3  41.2 1032.1 -9.9 -9.999 -99.9 -99.99 -9.99
2019/12/07 21:30 EST    5.40   5.49 -999 -999 -999  36.1  41.2 1032.2 -9.9 -9.999 -99.9 -99.99 -9.99
2019/12/07 21:36 EST    5.47   5.56 -999 -999 -999  36.1  41.2 1032.3 -9.9 -9.999 -99.9 -99.99 -9.99
2019/12/07 21:42 EST    5.53   5.61 -999 -999 -999  36.0  41.2 1032.3 -9.9 -9.999 -99.9 -99.99 -9.99
2019/12/07 21:48 EST    5.58   5.67 -999 -999 -999  36.0  41.2 1032.4 -9.9 -9.999 -99.9 -99.99 -9.99
2019/12/07 21:54 EST    5.63   5.73 -999 -999 -999  35.8  41.2 1032.4 -9.9 -9.999 -99.9 -99.99 -9.99
2019/12/07 22:00 EST    5.66   5.75 -999 -999 -999  35.8  41.2 1032.4 -9.9 -9.999 -99.9 -99.99 -9.99
2019/12/07 22:06 EST    5.68   5.77 -999 -999 -999  35.6  41.2 1032.4 -9.9 -9.999 -99.9 -99.99 -9.99
2019/12/07 22:12 EST    5.70   5.77 -999 -999 -999  35.6  41.2 1032.3 -9.9 -9.999 -99.9 -99.99 -9.99
2019/12/07 22:18 EST    5.70   5.76 -999 -999 -999  35.4  41.2 1032.3 -9.9 -9.999 -99.9 -99.99 -9.99
2019/12/07 22:24 EST    5.69   5.74 -999 -999 -999  34.5  41.2 1032.5 -9.9 -9.999 -99.9 -99.99 -9.99
2019/12/07 22:30 EST    5.67   5.72 -999 -999 -999  34.3  41.2 1032.5 -9.9 -9.999 -99.9 -99.99 -9.99
2019/12/07 22:36 EST    5.64   5.69 -999 -999 -999  34.5  41.2 1032.6 -9.9 -9.999 -99.9 -99.99 -9.99
2019/12/07 22:42 EST    5.60   5.63 -999 -999 -999  34.7  41.2 1032.5 -9.9 -9.999 -99.9 -99.99 -9.99
2019/12/07 22:48 EST    5.55   5.59 -999 -999 -999  34.7  41.2 1032.6 -9.9 -9.999 -99.9 -99.99 -9.99
2019/12/07 22:54 EST    5.49   5.53 -999 -999 -999  34.5  41.2 1032.5 -9.9 -9.999 -99.9 -99.99 -9.99
2019/12/07 23:00 EST    5.43   5.43 -999 -999 -999  34.0  41.2 1032.6 -9.9 -9.999 -99.9 -99.99 -9.99
2019/12/07 23:06 EST    5.36   5.35 -999 -999 -999  33.8  41.2 1032.6 -9.9 -9.999 -99.9 -99.99 -9.99
2019/12/07 23:12 EST    5.28   5.29 -999 -999 -999  33.4  41.2 1032.5 -9.9 -9.999 -99.9 -99.99 -9.99
2019/12/07 23:18 EST    5.19   5.20 -999 -999 -999  33.4  41.2 1032.5 -9.9 -9.999 -99.9 -99.99 -9.99
2019/12/07 23:24 EST    5.10   5.11 -999 -999 -999  33.1  41.2 1032.5 -9.9 -9.999 -99.9 -99.99 -9.99
2019/12/07 23:30 EST    5.00   5.01 -999 -999 -999  33.3  41.2 1032.5 -9.9 -9.999 -99.9 -99.99 -9.99
2019/12/07 23:36 EST    4.90   4.92 -999 -999 -999  33.4  41.2 1032.5 -9.9 -9.999 -99.9 -99.99 -9.99
2019/12/07 23:42 EST    4.80   4.80 -999 -999 -999  33.6  41.2 1032.5 -9.9 -9.999 -99.9 -99.99 -9.99
2019/12/07 23:48 EST    4.69   4.70 -999 -999 -999  33.4  41.2 1032.5 -9.9 -9.999 -99.9 -99.99 -9.99
2019/12/07 23:54 EST    4.58   4.59 -999 -999 -999  33.3  41.2 1032.6 -9.9 -9.999 -99.9 -99.99 -9.99
2019/12/08 00:00 EST    4.47   4.48 -999 -999 -999  33.3  41.2 1032.6 -9.9 -9.999 -99.9 -99.99 -9.99
2019/12/08 00:06 EST    4.35   4.37 -999 -999 -999  33.1  41.2 1032.6 -9.9 -9.999 -99.9 -99.99 -9.99
2019/12/08 00:12 EST    4.24   4.27 -999 -999 -999  32.9  41.2 1032.7 -9.9 -9.999 -99.9 -99.99 -9.99
2019/12/08 00:18 EST    4.12   4.15 -999 -999 -999  32.7  41.2 1032.7 -9.9 -9.999 -99.9 -99.99 -9.99
2019/12/08 00:24 EST    4.00   4.05 -999 -999 -999  32.9  41.2 1032.7 -9.9 -9.999 -99.9 -99.99 -9.99
2019/12/08 00:30 EST    3.88   3.94 -999 -999 -999  32.7  41.2 1032.8 -9.9 -9.999 -99.9 -99.99 -9.99
2019/12/08 00:36 EST    3.76   3.84 -999 -999 -999  32.5  41.2 1032.7 -9.9 -9.999 -99.9 -99.99 -9.99
2019/12/08 00:42 EST    3.64   3.74 -999 -999 -999  32.2  41.2 1032.8 -9.9 -9.999 -99.9 -99.99 -9.99
2019/12/08 00:48 EST    3.52   3.63 -999 -999 -999  32.0  41.2 1032.8 -9.9 -9.999 -99.9 -99.99 -9.99
2019/12/08 00:54 EST    3.40   3.52 -999 -999 -999  31.6  41.2 1032.9 -9.9 -9.999 -99.9 -99.99 -9.99
2019/12/08 01:00 EST    3.29   3.43 -999 -999 -999  31.5  41.2 1033.0 -9.9 -9.999 -99.9 -99.99 -9.99
2019/12/08 01:06 EST    3.17   3.31 -999 -999 -999  31.3  41.2 1033.0 -9.9 -9.999 -99.9 -99.99 -9.99
2019/12/08 01:12 EST    3.05   3.23 -999 -999 -999  30.7  41.2 1033.1 -9.9 -9.999 -99.9 -99.99 -9.99
2019/12/08 01:18 EST    2.93   3.13 -999 -999 -999  30.7  41.2 1033.2 -9.9 -9.999 -99.9 -99.99 -9.99
2019/12/08 01:24 EST    2.81   3.02 -999 -999 -999  30.4  41.2 1033.3 -9.9 -9.999 -99.9 -99.99 -9.99
2019/12/08 01:30 EST    2.70   2.92 -999 -999 -999  30.2  41.2 1033.4 -9.9 -9.999 -99.9 -99.99 -9.99
2019/12/08 01:36 EST    2.59   2.83 -999 -999 -999  31.3  41.4 1033.4 -9.9 -9.999 -99.9 -99.99 -9.99
2019/12/08 01:42 EST    2.47   2.72 -999 -999 -999  30.9  41.4 1033.5 -9.9 -9.999 -99.9 -99.99 -9.99
2019/12/08 01:48 EST    2.36   2.62 -999 -999 -999  32.0  41.2 1033.6 -9.9 -9.999 -99.9 -99.99 -9.99
2019/12/08 01:54 EST    2.25   2.52 -999 -999 -999  32.4  41.4 1033.6 -9.9 -9.999 -99.9 -99.99 -9.99
2019/12/08 02:00 EST    2.15   2.41 -999 -999 -999  32.5  41.4 1033.6 -9.9 -9.999 -99.9 -99.99 -9.99
2019/12/08 02:06 EST    2.04   2.31 -999 -999 -999  32.5  41.4 1033.7 -9.9 -9.999 -99.9 -99.99 -9.99
2019/12/08 02:12 EST    1.94   2.21 -999 -999 -999  32.2  41.4 1033.8 -9.9 -9.999 -99.9 -99.99 -9.99
2019/12/08 02:18 EST    1.83   2.10 -999 -999 -999  32.4  41.4 1033.8 -9.9 -9.999 -99.9 -99.99 -9.99
2019/12/08 02:24 EST    1.73   2.00 -999 -999 -999  32.2  41.4 1033.8 -9.9 -9.999 -99.9 -99.99 -9.99
2019/12/08 02:30 EST    1.64   1.89 -999 -999 -999  32.4  41.4 1033.7 -9.9 -9.999 -99.9 -99.99 -9.99
2019/12/08 02:36 EST    1.54   1.79 -999 -999 -999  32.5  41.4 1033.7 -9.9 -9.999 -99.9 -99.99 -9.99
2019/12/08 02:42 EST    1.44   1.68 -999 -999 -999  32.4  41.4 1033.8 -9.9 -9.999 -99.9 -99.99 -9.99
2019/12/08 02:48 EST    1.35   1.58 -999 -999 -999  32.2  41.4 1033.8 -9.9 -9.999 -99.9 -99.99 -9.99
2019/12/08 02:54 EST    1.26   1.48 -999 -999 -999  32.0  41.4 1033.7 -9.9 -9.999 -99.9 -99.99 -9.99
2019/12/08 03:00 EST    1.16   1.37 -999 -999 -999  32.2  41.4 1033.7 -9.9 -9.999 -99.9 -99.99 -9.99
2019/12/08 03:06 EST    1.07   1.27 -999 -999 -999  32.2  41.4 1033.7 -9.9 -9.999 -99.9 -99.99 -9.99
2019/12/08 03:12 EST    0.98   1.18 -999 -999 -999  32.0  41.4 1033.6 -9.9 -9.999 -99.9 -99.99 -9.99
2019/12/08 03:18 EST    0.89   1.08 -999 -999 -999  31.6  41.4 1033.6 -9.9 -9.999 -99.9 -99.99 -9.99
2019/12/08 03:24 EST    0.81   0.98 -999 -999 -999  31.6  41.4 1033.7 -9.9 -9.999 -99.9 -99.99 -9.99
2019/12/08 03:30 EST    0.72   0.89 -999 -999 -999  31.8  41.4 1033.6 -9.9 -9.999 -99.9 -99.99 -9.99
2019/12/08 03:36 EST    0.63   0.79 -999 -999 -999  31.8  41.4 1033.5 -9.9 -9.999 -99.9 -99.99 -9.99
2019/12/08 03:42 EST    0.55   0.70 -999 -999 -999  31.6  41.4 1033.5 -9.9 -9.999 -99.9 -99.99 -9.99
2019/12/08 03:48 EST    0.47   0.61 -999 -999 -999  31.5  41.4 1033.5 -9.9 -9.999 -99.9 -99.99 -9.99
2019/12/08 03:54 EST    0.39   0.54 -999 -999 -999  31.3  41.4 1033.4 -9.9 -9.999 -99.9 -99.99 -9.99
2019/12/08 04:00 EST    0.32   0.45 -999 -999 -999  31.1  41.4 1033.4 -9.9 -9.999 -99.9 -99.99 -9.99
2019/12/08 04:06 EST    0.25   0.37 -999 -999 -999  30.9  41.4 1033.2 -9.9 -9.999 -99.9 -99.99 -9.99
2019/12/08 04:12 EST    0.19   0.28 -999 -999 -999  31.1  41.4 1033.2 -9.9 -9.999 -99.9 -99.99 -9.99
2019/12/08 04:18 EST    0.13   0.24 -999 -999 -999  31.1  41.4 1033.1 -9.9 -9.999 -99.9 -99.99 -9.99
2019/12/08 04:24 EST    0.09   0.13 -999 -999 -999  31.1  41.4 1033.0 -9.9 -9.999 -99.9 -99.99 -9.99
2019/12/08 04:30 EST    0.05   0.09 -999 -999 -999  30.9  41.4 1033.1 -9.9 -9.999 -99.9 -99.99 -9.99
2019/12/08 04:36 EST    0.01   0.03 -999 -999 -999  30.7  41.4 1033.2 -9.9 -9.999 -99.9 -99.99 -9.99
2019/12/08 04:42 EST   -0.01  -0.01 -999 -999 -999  30.4  41.2 1033.3 -9.9 -9.999 -99.9 -99.99 -9.99
2019/12/08 04:48 EST   -0.02  -0.04 -999 -999 -999  30.6  41.2 1033.3 -9.9 -9.999 -99.9 -99.99 -9.99
2019/12/08 04:54 EST   -0.02  -0.04 -999 -999 -999  30.7  41.2 1033.3 -9.9 -9.999 -99.9 -99.99 -9.99
2019/12/08 05:00 EST   -0.00  -0.02 -999 -999 -999  30.7  41.2 1033.4 -9.9 -9.999 -99.9 -99.99 -9.99
2019/12/08 05:06 EST    0.03   0.04 -999 -999 -999  30.7  41.2 1033.4 -9.9 -9.999 -99.9 -99.99 -9.99
2019/12/08 05:12 EST    0.07   0.14 -999 -999 -999  30.9  41.2 1033.3 -9.9 -9.999 -99.9 -99.99 -9.99
2019/12/08 05:18 EST    0.12   0.28 -999 -999 -999  30.9  41.2 1033.3 -9.9 -9.999 -99.9 -99.99 -9.99
2019/12/08 05:24 EST    0.19   0.46 -999 -999 -999  30.9  41.0 1033.3 -9.9 -9.999 -99.9 -99.99 -9.99
2019/12/08 05:30 EST    0.27   0.65 -999 -999 -999  31.1  41.0 1033.3 -9.9 -9.999 -99.9 -99.99 -9.99
2019/12/08 05:36 EST    0.36   0.85 -999 -999 -999  30.7  41.0 1033.3 -9.9 -9.999 -99.9 -99.99 -9.99
2019/12/08 05:42 EST    0.46   1.06 -999 -999 -999  30.6  41.0 1033.3 -9.9 -9.999 -99.9 -99.99 -9.99
2019/12/08 05:48 EST    0.58   1.25 -999 -999 -999  30.6  41.0 1033.4 -9.9 -9.999 -99.9 -99.99 -9.99
2019/12/08 05:54 EST    0.71   1.44 -999 -999 -999  30.6  41.0 1033.5 -9.9 -9.999 -99.9 -99.99 -9.99
2019/12/08 06:00 EST    0.84   1.63 -999 -999 -999  30.2  40.8 1033.5 -9.9 -9.999 -99.9 -99.99 -9.99
2019/12/08 06:06 EST    0.99   1.81 -999 -999 -999  30.4  40.8 1033.6 -9.9 -9.999 -99.9 -99.99 -9.99
2019/12/08 06:12 EST    1.14   2.00 -999 -999 -999  30.2  40.8 1033.6 -9.9 -9.999 -99.9 -99.99 -9.99
2019/12/08 06:18 EST    1.29 -99.99 -999 -999 -999 -99.9 -99.9 -999.9 -9.9 -9.999 -99.9 -99.99 -9.99
2019/12/08 06:24 EST    1.45 -99.99 -999 -999 -999 -99.9 -99.9 -999.9 -9.9 -9.999 -99.9 -99.99 -9.99